THA62 LOWW-VTBS
Flight info
| Callsign | THA62 |
|---|---|
| Flight time | 9h 29m |
| Altitude | 37000 |
| Route | ADAMA DCT VEDER DCT ALAMU DCT EPARI DCT BUDOP DCT UDROS UN743 GAKSU UT310 SIN UN644 KARDE UL851 TBN UM11 REBLO M11 LUSAL M747 SULEL N449 DUKAN B449 RANAH L750 MERUN G452 LKN R460 BBN P646 JJS Z12 DOPID P646 PTN N895 BETNO G463 TARED DCT WILLA WILLA1C |
| Aircraft | A359/H-SDE2E3GHIJ3J4J5LM1ORWXY/LB1D1 |
Departure
| Time | 2026-04-23 20:51 |
|---|---|
| Airport | Vienna International Airport (LOWW) |
Arrival
| Time | 2026-04-24 06:20 |
|---|---|
| Airport | Suvarnabhumi Airport (VTBS) |
| Time | Latitude | Longitude | Altitude | Speed | Heading |
|---|---|---|---|---|---|
| 2026-04-23 20:20 | 48.11696 | 16.56781 | 626 ft | 0 kts | 27° |
| 2026-04-23 20:41 | 48.11689 | 16.56776 | 625 ft | 3 kts | 27° |
| 2026-04-23 20:41 | 48.11673 | 16.56763 | 626 ft | 3 kts | 41° |
| 2026-04-23 20:41 | 48.11660 | 16.56746 | 627 ft | 2 kts | 43° |
| 2026-04-23 20:41 | 48.11649 | 16.56723 | 627 ft | 2 kts | 71° |
| 2026-04-23 20:42 | 48.11646 | 16.56699 | 627 ft | 0 kts | 105° |
| 2026-04-23 20:45 | 48.11637 | 16.56742 | 628 ft | 6 kts | 111° |
| 2026-04-23 20:45 | 48.11617 | 16.56806 | 626 ft | 7 kts | 115° |
| 2026-04-23 20:45 | 48.11595 | 16.56873 | 629 ft | 7 kts | 121° |
| 2026-04-23 20:45 | 48.11557 | 16.56912 | 630 ft | 6 kts | 165° |
| 2026-04-23 20:46 | 48.11522 | 16.56902 | 631 ft | 5 kts | 198° |
| 2026-04-23 20:46 | 48.11492 | 16.56887 | 629 ft | 5 kts | 199° |
| 2026-04-23 20:46 | 48.11456 | 16.56882 | 629 ft | 7 kts | 173° |
| 2026-04-23 20:46 | 48.11410 | 16.56948 | 635 ft | 12 kts | 120° |
| 2026-04-23 20:47 | 48.11363 | 16.57089 | 633 ft | 18 kts | 116° |
| 2026-04-23 20:47 | 48.11303 | 16.57274 | 632 ft | 20 kts | 116° |
| 2026-04-23 20:47 | 48.11239 | 16.57467 | 634 ft | 22 kts | 116° |
| 2026-04-23 20:47 | 48.11174 | 16.57596 | 629 ft | 8 kts | 165° |
| 2026-04-23 20:48 | 48.11125 | 16.57601 | 629 ft | 6 kts | 167° |
| 2026-04-23 20:48 | 48.11087 | 16.57635 | 635 ft | 7 kts | 152° |
| 2026-04-23 20:48 | 48.11040 | 16.57636 | 631 ft | 6 kts | 194° |
| 2026-04-23 20:48 | 48.11038 | 16.57635 | 628 ft | 0 kts | 195° |
| 2026-04-23 20:49 | 48.11031 | 16.57632 | 626 ft | 6 kts | 195° |
| 2026-04-23 20:49 | 48.10951 | 16.57550 | 638 ft | 18 kts | 235° |
| 2026-04-23 20:49 | 48.10960 | 16.57403 | 639 ft | 11 kts | 286° |
| 2026-04-23 20:49 | 48.10973 | 16.57358 | 636 ft | 0 kts | 295° |
| 2026-04-23 20:50 | 48.11035 | 16.57162 | 638 ft | 58 kts | 296° |
| 2026-04-23 20:50 | 48.11325 | 16.56274 | 632 ft | 131 kts | 296° |
| 2026-04-23 20:50 | 48.11826 | 16.54768 | 755 ft | 182 kts | 298° |
| 2026-04-23 20:51 | 48.12398 | 16.52955 | 1399 ft | 201 kts | 297° |
| 2026-04-23 20:51 | 48.12483 | 16.50700 | 2083 ft | 238 kts | 260° |
| 2026-04-23 20:51 | 48.11522 | 16.48651 | 2844 ft | 254 kts | 224° |
| 2026-04-23 20:51 | 48.09838 | 16.47609 | 3064 ft | 285 kts | 189° |
| 2026-04-23 20:52 | 48.07813 | 16.47480 | 3478 ft | 294 kts | 187° |
| 2026-04-23 20:52 | 48.05758 | 16.47275 | 4017 ft | 299 kts | 177° |
| 2026-04-23 20:52 | 48.03808 | 16.48317 | 4639 ft | 300 kts | 142° |
| 2026-04-23 20:52 | 48.02244 | 16.50321 | 5259 ft | 300 kts | 135° |
| 2026-04-23 20:53 | 48.00648 | 16.52373 | 5859 ft | 303 kts | 139° |
| 2026-04-23 20:53 | 47.98962 | 16.54277 | 6488 ft | 305 kts | 143° |
| 2026-04-23 20:53 | 47.97315 | 16.56259 | 7031 ft | 304 kts | 130° |
| 2026-04-23 20:53 | 47.96243 | 16.58918 | 7581 ft | 295 kts | 101° |
| 2026-04-23 20:54 | 47.96093 | 16.61871 | 8175 ft | 282 kts | 74° |
| 2026-04-23 20:54 | 47.96615 | 16.64653 | 8783 ft | 277 kts | 64° |
| 2026-04-23 20:54 | 47.97267 | 16.67373 | 9336 ft | 280 kts | 64° |
| 2026-04-23 20:54 | 47.97924 | 16.70117 | 9928 ft | 282 kts | 65° |
| 2026-04-23 20:55 | 47.98581 | 16.72904 | 10322 ft | 290 kts | 65° |
| 2026-04-23 20:55 | 47.99253 | 16.75786 | 10542 ft | 304 kts | 66° |
| 2026-04-23 20:55 | 47.99738 | 16.78948 | 10742 ft | 323 kts | 78° |
| 2026-04-23 20:55 | 47.99966 | 16.82369 | 10977 ft | 337 kts | 81° |
| 2026-04-23 20:56 | 48.00157 | 16.85907 | 11199 ft | 349 kts | 81° |
| 2026-04-23 20:56 | 48.00356 | 16.89581 | 11391 ft | 360 kts | 81° |
| 2026-04-23 20:56 | 48.00565 | 16.93367 | 11596 ft | 370 kts | 81° |
| 2026-04-23 20:56 | 48.00780 | 16.97250 | 11862 ft | 377 kts | 81° |
| 2026-04-23 20:57 | 48.00994 | 17.01177 | 12297 ft | 380 kts | 82° |
| 2026-04-23 20:57 | 48.01007 | 17.05104 | 12740 ft | 385 kts | 90° |
| 2026-04-23 20:57 | 48.00743 | 17.09102 | 13153 ft | 389 kts | 92° |
| 2026-04-23 20:57 | 48.00426 | 17.13138 | 13600 ft | 390 kts | 93° |
| 2026-04-23 20:58 | 48.00107 | 17.17179 | 14025 ft | 392 kts | 93° |
| 2026-04-23 20:58 | 47.99790 | 17.21224 | 14419 ft | 394 kts | 92° |
| 2026-04-23 20:58 | 47.99471 | 17.25323 | 14733 ft | 398 kts | 92° |
| 2026-04-23 20:58 | 47.99149 | 17.29443 | 15097 ft | 401 kts | 92° |
| 2026-04-23 20:59 | 47.98769 | 17.33596 | 15495 ft | 404 kts | 97° |
| 2026-04-23 20:59 | 47.98123 | 17.37625 | 15903 ft | 407 kts | 101° |
| 2026-04-23 20:59 | 47.97298 | 17.41698 | 16284 ft | 410 kts | 104° |
| 2026-04-23 20:59 | 47.96391 | 17.45754 | 16681 ft | 412 kts | 105° |
| 2026-04-23 21:00 | 47.95454 | 17.49805 | 17093 ft | 413 kts | 105° |
| 2026-04-23 21:00 | 47.94514 | 17.53867 | 17488 ft | 414 kts | 105° |
| 2026-04-23 21:00 | 47.93581 | 17.57959 | 17866 ft | 416 kts | 104° |
| 2026-04-23 21:00 | 47.92660 | 17.62052 | 18213 ft | 417 kts | 104° |
| 2026-04-23 21:01 | 47.91754 | 17.66123 | 18477 ft | 422 kts | 104° |
| 2026-04-23 21:01 | 47.90829 | 17.70300 | 18730 ft | 425 kts | 104° |
| 2026-04-23 21:01 | 47.89901 | 17.74493 | 19075 ft | 426 kts | 104° |
| 2026-04-23 21:01 | 47.88971 | 17.78682 | 19396 ft | 427 kts | 104° |
| 2026-04-23 21:02 | 47.88338 | 17.81529 | 19612 ft | 428 kts | 104° |
| 2026-04-23 21:02 | 47.87093 | 17.87113 | 20028 ft | 429 kts | 104° |
| 2026-04-23 21:02 | 47.86147 | 17.91346 | 20324 ft | 431 kts | 104° |
| 2026-04-23 21:02 | 47.85191 | 17.95592 | 20621 ft | 432 kts | 105° |
| 2026-04-23 21:03 | 47.84062 | 17.99765 | 20906 ft | 436 kts | 109° |
| 2026-04-23 21:03 | 47.82852 | 18.03865 | 21164 ft | 439 kts | 110° |
| 2026-04-23 21:03 | 47.81580 | 18.08014 | 21413 ft | 442 kts | 110° |
| 2026-04-23 21:03 | 47.80281 | 18.12161 | 21722 ft | 443 kts | 111° |
| 2026-04-23 21:04 | 47.78960 | 18.16344 | 22007 ft | 444 kts | 111° |
| 2026-04-23 21:04 | 47.77642 | 18.20507 | 22318 ft | 446 kts | 111° |
| 2026-04-23 21:04 | 47.76322 | 18.24683 | 22608 ft | 447 kts | 110° |
| 2026-04-23 21:04 | 47.75008 | 18.28896 | 22899 ft | 448 kts | 109° |
| 2026-04-23 21:05 | 47.74279 | 18.31759 | 23061 ft | 445 kts | 103° |
| 2026-04-23 21:05 | 47.73387 | 18.37670 | 23450 ft | 442 kts | 95° |
| 2026-04-23 21:05 | 47.72940 | 18.42195 | 23735 ft | 442 kts | 93° |
| 2026-04-23 21:05 | 47.72573 | 18.46730 | 23951 ft | 443 kts | 92° |
| 2026-04-23 21:06 | 47.72345 | 18.49817 | 24091 ft | 444 kts | 91° |
| 2026-04-23 21:06 | 47.71913 | 18.55875 | 24421 ft | 446 kts | 91° |
| 2026-04-23 21:06 | 47.71580 | 18.60462 | 24658 ft | 448 kts | 91° |
| 2026-04-23 21:06 | 47.71238 | 18.65061 | 24890 ft | 449 kts | 92° |
| 2026-04-23 21:07 | 47.71003 | 18.68127 | 25057 ft | 449 kts | 92° |
| 2026-04-23 21:07 | 47.70645 | 18.72735 | 25300 ft | 451 kts | 92° |
| 2026-04-23 21:07 | 47.70280 | 18.77375 | 25521 ft | 452 kts | 92° |
| 2026-04-23 21:07 | 47.69912 | 18.82025 | 25780 ft | 454 kts | 91° |
| 2026-04-23 21:08 | 47.69538 | 18.86724 | 25951 ft | 457 kts | 92° |
| 2026-04-23 21:08 | 47.69156 | 18.91357 | 26184 ft | 459 kts | 93° |
| 2026-04-23 21:08 | 47.68503 | 18.96078 | 26443 ft | 465 kts | 100° |
| 2026-04-23 21:08 | 47.67424 | 19.00585 | 26661 ft | 473 kts | 109° |
| 2026-04-23 21:09 | 47.65970 | 19.04987 | 26879 ft | 478 kts | 112° |
| 2026-04-23 21:09 | 47.64383 | 19.09344 | 27148 ft | 480 kts | 114° |
| 2026-04-23 21:09 | 47.62731 | 19.13672 | 27388 ft | 482 kts | 114° |
| 2026-04-23 21:09 | 47.61055 | 19.17985 | 27621 ft | 484 kts | 115° |
| 2026-04-23 21:10 | 47.59368 | 19.22318 | 27902 ft | 485 kts | 114° |
| 2026-04-23 21:10 | 47.57683 | 19.26663 | 28163 ft | 487 kts | 114° |
| 2026-04-23 21:10 | 47.56000 | 19.31022 | 28378 ft | 488 kts | 114° |
| 2026-04-23 21:10 | 47.54319 | 19.35388 | 28618 ft | 490 kts | 114° |
| 2026-04-23 21:11 | 47.52629 | 19.39784 | 28848 ft | 491 kts | 114° |
| 2026-04-23 21:11 | 47.50933 | 19.44196 | 29067 ft | 493 kts | 114° |
| 2026-04-23 21:11 | 47.49237 | 19.48602 | 29309 ft | 494 kts | 114° |
| 2026-04-23 21:11 | 47.47551 | 19.52973 | 29521 ft | 496 kts | 114° |
| 2026-04-23 21:12 | 47.45836 | 19.57414 | 29718 ft | 499 kts | 114° |
| 2026-04-23 21:12 | 47.44117 | 19.61855 | 29949 ft | 500 kts | 114° |
| 2026-04-23 21:12 | 47.42382 | 19.66324 | 30263 ft | 498 kts | 114° |
| 2026-04-23 21:12 | 47.40651 | 19.70774 | 30566 ft | 497 kts | 114° |
| 2026-04-23 21:13 | 47.38929 | 19.75193 | 30855 ft | 496 kts | 114° |
| 2026-04-23 21:13 | 47.37206 | 19.79609 | 31138 ft | 495 kts | 113° |
| 2026-04-23 21:13 | 47.35490 | 19.84005 | 31413 ft | 494 kts | 113° |
| 2026-04-23 21:13 | 47.33776 | 19.88388 | 31723 ft | 494 kts | 113° |
| 2026-04-23 21:14 | 47.32078 | 19.92724 | 31982 ft | 493 kts | 113° |
| 2026-04-23 21:14 | 47.30371 | 19.97073 | 32358 ft | 489 kts | 113° |
| 2026-04-23 21:14 | 47.28668 | 20.01403 | 32651 ft | 488 kts | 113° |
| 2026-04-23 21:14 | 47.26961 | 20.05744 | 32890 ft | 488 kts | 113° |
| 2026-04-23 21:15 | 47.25259 | 20.10063 | 33135 ft | 488 kts | 113° |
| 2026-04-23 21:15 | 47.23551 | 20.14391 | 33381 ft | 487 kts | 113° |
| 2026-04-23 21:15 | 47.21846 | 20.18702 | 33632 ft | 487 kts | 113° |
| 2026-04-23 21:15 | 47.20146 | 20.22994 | 33909 ft | 486 kts | 113° |
| 2026-04-23 21:16 | 47.18437 | 20.27305 | 34086 ft | 487 kts | 113° |
| 2026-04-23 21:16 | 47.16730 | 20.31603 | 34269 ft | 487 kts | 113° |
| 2026-04-23 21:16 | 47.15019 | 20.35901 | 34445 ft | 487 kts | 113° |
| 2026-04-23 21:16 | 47.13309 | 20.40192 | 34625 ft | 487 kts | 114° |
| 2026-04-23 21:17 | 47.11617 | 20.44429 | 34801 ft | 487 kts | 114° |
| 2026-04-23 21:17 | 47.09894 | 20.48739 | 34971 ft | 487 kts | 114° |
| 2026-04-23 21:17 | 47.08179 | 20.53021 | 35147 ft | 487 kts | 114° |
| 2026-04-23 21:17 | 47.06453 | 20.57325 | 35312 ft | 487 kts | 114° |
| 2026-04-23 21:18 | 47.04730 | 20.61612 | 35475 ft | 488 kts | 114° |
| 2026-04-23 21:18 | 47.03006 | 20.65897 | 35625 ft | 488 kts | 114° |
| 2026-04-23 21:18 | 47.01302 | 20.70124 | 35785 ft | 488 kts | 114° |
| 2026-04-23 21:18 | 46.99572 | 20.74410 | 35944 ft | 488 kts | 114° |
| 2026-04-23 21:19 | 46.97840 | 20.78694 | 36084 ft | 488 kts | 114° |
| 2026-04-23 21:19 | 46.96108 | 20.82973 | 36226 ft | 488 kts | 114° |
| 2026-04-23 21:19 | 46.94371 | 20.87255 | 36360 ft | 489 kts | 114° |
| 2026-04-23 21:19 | 46.92632 | 20.91538 | 36489 ft | 489 kts | 114° |
| 2026-04-23 21:20 | 46.89139 | 21.00118 | 36706 ft | 490 kts | 115° |
| 2026-04-23 21:20 | 46.87414 | 21.04344 | 36831 ft | 490 kts | 115° |
| 2026-04-23 21:20 | 46.85660 | 21.08634 | 36938 ft | 491 kts | 115° |
| 2026-04-23 21:21 | 46.82139 | 21.17234 | 36974 ft | 496 kts | 115° |
| 2026-04-23 21:21 | 46.78578 | 21.25898 | 37010 ft | 497 kts | 115° |
| 2026-04-23 21:22 | 46.75013 | 21.34541 | 36993 ft | 497 kts | 115° |
| 2026-04-23 21:22 | 46.71432 | 21.43196 | 36998 ft | 497 kts | 115° |
| 2026-04-23 21:23 | 46.67879 | 21.51780 | 36991 ft | 497 kts | 114° |
| 2026-04-23 21:23 | 46.64577 | 21.60580 | 36991 ft | 494 kts | 111° |
| 2026-04-23 21:24 | 46.61399 | 21.69461 | 36994 ft | 495 kts | 111° |
| 2026-04-23 21:24 | 46.58172 | 21.78325 | 37009 ft | 496 kts | 112° |
| 2026-04-23 21:25 | 46.54901 | 21.87160 | 36993 ft | 496 kts | 112° |
| 2026-04-23 21:25 | 46.51631 | 21.95925 | 36996 ft | 497 kts | 112° |
| 2026-04-23 21:26 | 46.48322 | 22.04766 | 36997 ft | 497 kts | 112° |
| 2026-04-23 21:26 | 46.45012 | 22.13585 | 37001 ft | 497 kts | 112° |
| 2026-04-23 21:27 | 46.41721 | 22.22327 | 37001 ft | 497 kts | 112° |
| 2026-04-23 21:27 | 46.38391 | 22.31149 | 37002 ft | 499 kts | 113° |
| 2026-04-23 21:28 | 46.35049 | 22.39971 | 37009 ft | 499 kts | 113° |
| 2026-04-23 21:28 | 46.31695 | 22.48793 | 37008 ft | 499 kts | 113° |
| 2026-04-23 21:29 | 46.28360 | 22.57540 | 37024 ft | 500 kts | 113° |
| 2026-04-23 21:29 | 46.24985 | 22.66363 | 37009 ft | 501 kts | 113° |
| 2026-04-23 21:30 | 46.21606 | 22.75167 | 37010 ft | 501 kts | 114° |
| 2026-04-23 21:30 | 46.18213 | 22.83979 | 37015 ft | 501 kts | 114° |
| 2026-04-23 21:31 | 46.14821 | 22.92760 | 37016 ft | 501 kts | 114° |
| 2026-04-23 21:31 | 46.11417 | 23.01546 | 37006 ft | 502 kts | 114° |
| 2026-04-23 21:32 | 46.08023 | 23.10278 | 37012 ft | 502 kts | 114° |
| 2026-04-23 21:32 | 46.04601 | 23.19051 | 37004 ft | 502 kts | 114° |
| 2026-04-23 21:33 | 46.01173 | 23.27812 | 36984 ft | 502 kts | 115° |
| 2026-04-23 21:33 | 45.97737 | 23.36568 | 37000 ft | 502 kts | 115° |
| 2026-04-23 21:34 | 45.94301 | 23.45288 | 36999 ft | 501 kts | 115° |
| 2026-04-23 21:34 | 45.90878 | 23.53955 | 37012 ft | 501 kts | 116° |
| 2026-04-23 21:35 | 45.87425 | 23.62669 | 36994 ft | 502 kts | 116° |
| 2026-04-23 21:35 | 45.83965 | 23.71375 | 36973 ft | 502 kts | 116° |
| 2026-04-23 21:36 | 45.78756 | 23.84427 | 36950 ft | 502 kts | 116° |
| 2026-04-23 21:37 | 45.75272 | 23.93121 | 36967 ft | 502 kts | 116° |
| 2026-04-23 21:37 | 45.71806 | 24.01746 | 36966 ft | 502 kts | 116° |
| 2026-04-23 21:38 | 45.68315 | 24.10404 | 36982 ft | 502 kts | 116° |
| 2026-04-23 21:38 | 45.64808 | 24.19079 | 36976 ft | 503 kts | 116° |
| 2026-04-23 21:39 | 45.61321 | 24.27677 | 36969 ft | 504 kts | 116° |
| 2026-04-23 21:39 | 45.57799 | 24.36330 | 36967 ft | 504 kts | 116° |
| 2026-04-23 21:40 | 45.54265 | 24.44985 | 36970 ft | 504 kts | 116° |
| 2026-04-23 21:40 | 45.50726 | 24.53628 | 36970 ft | 504 kts | 116° |
| 2026-04-23 21:41 | 45.47174 | 24.62276 | 36965 ft | 505 kts | 116° |
| 2026-04-23 21:41 | 45.43612 | 24.70921 | 36965 ft | 505 kts | 116° |
| 2026-04-23 21:42 | 45.40069 | 24.79495 | 36980 ft | 506 kts | 117° |
| 2026-04-23 21:42 | 45.36487 | 24.88135 | 36962 ft | 507 kts | 117° |
| 2026-04-23 21:43 | 45.32891 | 24.96782 | 36952 ft | 507 kts | 117° |
| 2026-04-23 21:43 | 45.29291 | 25.05413 | 36955 ft | 507 kts | 117° |
| 2026-04-23 21:44 | 45.25709 | 25.13973 | 36957 ft | 508 kts | 117° |
| 2026-04-23 21:44 | 45.22088 | 25.22603 | 36946 ft | 509 kts | 117° |
| 2026-04-23 21:45 | 45.18454 | 25.31235 | 36939 ft | 509 kts | 117° |
| 2026-04-23 21:45 | 45.14814 | 25.39854 | 36963 ft | 509 kts | 117° |
| 2026-04-23 21:46 | 45.11187 | 25.48415 | 36943 ft | 510 kts | 117° |
| 2026-04-23 21:46 | 45.07524 | 25.57038 | 36937 ft | 511 kts | 117° |
| 2026-04-23 21:47 | 45.03856 | 25.65649 | 36919 ft | 510 kts | 118° |
| 2026-04-23 21:47 | 45.00194 | 25.74216 | 36930 ft | 508 kts | 119° |
| 2026-04-23 21:48 | 44.96533 | 25.82752 | 36923 ft | 507 kts | 119° |
| 2026-04-23 21:48 | 44.92894 | 25.91212 | 36923 ft | 506 kts | 119° |
| 2026-04-23 21:49 | 44.89229 | 25.99710 | 36919 ft | 507 kts | 119° |
| 2026-04-23 21:49 | 44.85558 | 26.08196 | 36913 ft | 507 kts | 119° |
| 2026-04-23 21:50 | 44.81875 | 26.16685 | 36912 ft | 507 kts | 119° |
| 2026-04-23 21:50 | 44.78215 | 26.25096 | 36906 ft | 507 kts | 119° |
| 2026-04-23 21:51 | 44.74527 | 26.33546 | 36914 ft | 508 kts | 119° |
| 2026-04-23 21:51 | 44.70812 | 26.42032 | 36904 ft | 510 kts | 119° |
| 2026-04-23 21:52 | 44.67088 | 26.50515 | 36901 ft | 510 kts | 119° |
| 2026-04-23 21:52 | 44.63983 | 26.57565 | 36903 ft | 510 kts | 119° |
| 2026-04-23 21:53 | 44.60243 | 26.66039 | 36901 ft | 512 kts | 119° |
| 2026-04-23 21:53 | 44.56499 | 26.74494 | 36884 ft | 513 kts | 119° |
| 2026-04-23 21:54 | 44.52730 | 26.82981 | 36901 ft | 512 kts | 119° |
| 2026-04-23 21:54 | 44.48964 | 26.91436 | 36901 ft | 511 kts | 119° |
| 2026-04-23 21:55 | 44.44556 | 27.01300 | 36899 ft | 511 kts | 120° |
| 2026-04-23 21:55 | 44.41414 | 27.08311 | 36898 ft | 511 kts | 120° |
| 2026-04-23 21:56 | 44.37631 | 27.16730 | 36914 ft | 511 kts | 120° |
| 2026-04-23 21:56 | 44.33826 | 27.25173 | 36895 ft | 513 kts | 120° |
| 2026-04-23 21:57 | 44.30015 | 27.33607 | 36897 ft | 513 kts | 120° |
| 2026-04-23 21:57 | 44.26218 | 27.41982 | 36896 ft | 513 kts | 120° |
| 2026-04-23 21:58 | 44.22395 | 27.50390 | 36898 ft | 514 kts | 120° |
| 2026-04-23 21:58 | 44.18559 | 27.58804 | 36898 ft | 514 kts | 120° |
| 2026-04-23 21:59 | 44.14706 | 27.67231 | 36898 ft | 514 kts | 120° |
| 2026-04-23 21:59 | 44.10856 | 27.75624 | 36894 ft | 515 kts | 120° |
| 2026-04-23 22:00 | 44.05051 | 27.88237 | 36906 ft | 516 kts | 120° |
| 2026-04-23 22:00 | 44.01198 | 27.96577 | 36882 ft | 516 kts | 120° |
| 2026-04-23 22:01 | 43.97315 | 28.04960 | 36896 ft | 516 kts | 120° |
| 2026-04-23 22:01 | 43.93423 | 28.13337 | 36895 ft | 517 kts | 120° |
| 2026-04-23 22:02 | 43.89520 | 28.21713 | 36889 ft | 517 kts | 120° |
| 2026-04-23 22:02 | 43.85620 | 28.30059 | 36906 ft | 517 kts | 120° |
| 2026-04-23 22:03 | 43.81688 | 28.38449 | 36891 ft | 518 kts | 120° |
| 2026-04-23 22:03 | 43.77777 | 28.46772 | 36893 ft | 518 kts | 121° |
| 2026-04-23 22:04 | 43.73829 | 28.55147 | 36896 ft | 518 kts | 121° |
| 2026-04-23 22:04 | 43.69883 | 28.63496 | 36903 ft | 519 kts | 121° |
| 2026-04-23 22:05 | 43.65946 | 28.71801 | 36904 ft | 519 kts | 121° |
| 2026-04-23 22:05 | 43.61977 | 28.80149 | 36903 ft | 519 kts | 121° |
| 2026-04-23 22:06 | 43.58012 | 28.88466 | 36899 ft | 519 kts | 121° |
| 2026-04-23 22:06 | 43.54027 | 28.96802 | 36905 ft | 519 kts | 121° |
| 2026-04-23 22:07 | 43.50040 | 29.05117 | 36903 ft | 519 kts | 121° |
| 2026-04-23 22:07 | 43.46047 | 29.13421 | 36908 ft | 519 kts | 122° |
| 2026-04-23 22:08 | 43.42071 | 29.21667 | 36907 ft | 520 kts | 122° |
| 2026-04-23 22:08 | 43.38064 | 29.29955 | 36908 ft | 520 kts | 122° |
| 2026-04-23 22:09 | 43.34040 | 29.38252 | 36910 ft | 520 kts | 122° |
| 2026-04-23 22:09 | 43.30022 | 29.46517 | 36909 ft | 521 kts | 122° |
| 2026-04-23 22:10 | 43.26014 | 29.54736 | 36912 ft | 521 kts | 122° |
| 2026-04-23 22:10 | 43.21974 | 29.62997 | 36912 ft | 521 kts | 122° |
| 2026-04-23 22:11 | 43.17931 | 29.71244 | 36915 ft | 521 kts | 122° |
| 2026-04-23 22:11 | 43.13886 | 29.79469 | 36917 ft | 521 kts | 122° |
| 2026-04-23 22:12 | 43.09832 | 29.87691 | 36919 ft | 521 kts | 122° |
| 2026-04-23 22:12 | 43.05794 | 29.95857 | 36920 ft | 519 kts | 122° |
| 2026-04-23 22:13 | 43.01740 | 30.04033 | 36919 ft | 519 kts | 122° |
| 2026-04-23 22:13 | 42.97682 | 30.12197 | 36923 ft | 519 kts | 122° |
| 2026-04-23 22:14 | 42.93621 | 30.20344 | 36928 ft | 519 kts | 123° |
| 2026-04-23 22:14 | 42.89551 | 30.28485 | 36925 ft | 519 kts | 123° |
| 2026-04-23 22:15 | 42.85474 | 30.36617 | 36931 ft | 519 kts | 123° |
| 2026-04-23 22:15 | 42.81420 | 30.44684 | 36937 ft | 519 kts | 123° |
| 2026-04-23 22:16 | 42.77330 | 30.52798 | 36934 ft | 519 kts | 123° |
| 2026-04-23 22:16 | 42.73781 | 30.61330 | 36934 ft | 515 kts | 109° |
| 2026-04-23 22:17 | 42.71678 | 30.70601 | 36933 ft | 513 kts | 103° |
| 2026-04-23 22:17 | 42.69865 | 30.79937 | 36934 ft | 513 kts | 102° |
| 2026-04-23 22:18 | 42.68065 | 30.89326 | 36935 ft | 513 kts | 103° |
| 2026-04-23 22:18 | 42.66231 | 30.98717 | 36936 ft | 513 kts | 103° |
| 2026-04-23 22:19 | 42.64385 | 31.08038 | 36939 ft | 514 kts | 104° |
| 2026-04-23 22:19 | 42.62509 | 31.17443 | 36938 ft | 515 kts | 104° |
| 2026-04-23 22:20 | 42.60626 | 31.26836 | 36941 ft | 515 kts | 104° |
| 2026-04-23 22:20 | 42.58753 | 31.36146 | 36934 ft | 515 kts | 104° |
| 2026-04-23 22:21 | 42.56858 | 31.45526 | 36940 ft | 516 kts | 105° |
| 2026-04-23 22:21 | 42.54953 | 31.54911 | 36942 ft | 516 kts | 105° |
| 2026-04-23 22:22 | 42.53036 | 31.64309 | 36943 ft | 516 kts | 105° |
| 2026-04-23 22:22 | 42.51126 | 31.73628 | 36943 ft | 516 kts | 105° |
| 2026-04-23 22:23 | 42.49197 | 31.83002 | 36941 ft | 516 kts | 105° |
| 2026-04-23 22:23 | 42.47260 | 31.92365 | 36947 ft | 516 kts | 105° |
| 2026-04-23 22:24 | 42.45314 | 32.01736 | 36943 ft | 516 kts | 105° |
| 2026-04-23 22:24 | 42.43359 | 32.11106 | 36949 ft | 518 kts | 105° |
| 2026-04-23 22:25 | 42.41400 | 32.20454 | 36946 ft | 519 kts | 105° |
| 2026-04-23 22:25 | 42.39417 | 32.29868 | 36950 ft | 519 kts | 105° |
| 2026-04-23 22:26 | 42.37432 | 32.39256 | 36950 ft | 519 kts | 106° |
| 2026-04-23 22:26 | 42.35431 | 32.48677 | 36946 ft | 521 kts | 106° |
| 2026-04-23 22:27 | 42.33511 | 32.58112 | 36946 ft | 521 kts | 101° |
| 2026-04-23 22:27 | 42.32285 | 32.67763 | 36949 ft | 521 kts | 98° |
| 2026-04-23 22:28 | 42.31187 | 32.77448 | 36950 ft | 521 kts | 98° |
| 2026-04-23 22:28 | 42.30108 | 32.87077 | 36950 ft | 521 kts | 98° |
| 2026-04-23 22:29 | 42.29006 | 32.96756 | 36944 ft | 521 kts | 98° |
| 2026-04-23 22:29 | 42.27889 | 33.06422 | 36941 ft | 521 kts | 98° |
| 2026-04-23 22:30 | 42.26759 | 33.16105 | 36944 ft | 522 kts | 98° |
| 2026-04-23 22:30 | 42.25626 | 33.25749 | 36946 ft | 523 kts | 99° |
| 2026-04-23 22:31 | 42.24477 | 33.35453 | 36947 ft | 523 kts | 99° |
| 2026-04-23 22:31 | 42.23321 | 33.45152 | 36945 ft | 524 kts | 99° |
| 2026-04-23 22:32 | 42.22153 | 33.54872 | 36943 ft | 525 kts | 99° |
| 2026-04-23 22:32 | 42.20975 | 33.64605 | 36947 ft | 525 kts | 99° |
| 2026-04-23 22:33 | 42.19791 | 33.74322 | 36939 ft | 525 kts | 99° |
| 2026-04-23 22:33 | 42.18605 | 33.83995 | 36941 ft | 526 kts | 99° |
| 2026-04-23 22:34 | 42.17402 | 33.93754 | 36946 ft | 527 kts | 99° |
| 2026-04-23 22:34 | 42.16187 | 34.03491 | 36946 ft | 527 kts | 99° |
| 2026-04-23 22:35 | 42.14965 | 34.13228 | 36938 ft | 527 kts | 100° |
| 2026-04-23 22:35 | 42.13734 | 34.22978 | 36944 ft | 527 kts | 100° |
| 2026-04-23 22:36 | 42.12493 | 34.32736 | 36953 ft | 528 kts | 100° |
| 2026-04-23 22:36 | 42.11253 | 34.42418 | 36946 ft | 528 kts | 100° |
| 2026-04-23 22:37 | 42.09958 | 34.52193 | 36943 ft | 529 kts | 101° |
| 2026-04-23 22:37 | 42.08591 | 34.61934 | 36944 ft | 529 kts | 102° |
| 2026-04-23 22:38 | 42.07224 | 34.71626 | 36947 ft | 529 kts | 102° |
| 2026-04-23 22:38 | 42.05853 | 34.81369 | 36949 ft | 529 kts | 102° |
| 2026-04-23 22:39 | 42.04716 | 34.89479 | 36952 ft | 530 kts | 102° |
| 2026-04-23 22:39 | 42.03406 | 34.99247 | 36946 ft | 530 kts | 101° |
| 2026-04-23 22:40 | 42.02279 | 35.09066 | 36955 ft | 531 kts | 96° |
| 2026-04-23 22:41 | 42.01420 | 35.23933 | 36960 ft | 531 kts | 95° |
| 2026-04-23 22:41 | 42.00907 | 35.33809 | 36946 ft | 533 kts | 95° |
| 2026-04-23 22:42 | 42.00374 | 35.43772 | 36944 ft | 534 kts | 95° |
| 2026-04-23 22:42 | 41.99824 | 35.53746 | 36949 ft | 534 kts | 95° |
| 2026-04-23 22:43 | 41.99263 | 35.63694 | 36947 ft | 534 kts | 95° |
| 2026-04-23 22:43 | 41.98696 | 35.73600 | 36946 ft | 535 kts | 96° |
| 2026-04-23 22:44 | 41.98115 | 35.83588 | 36947 ft | 535 kts | 96° |
| 2026-04-23 22:44 | 41.97527 | 35.93567 | 36952 ft | 535 kts | 96° |
| 2026-04-23 22:45 | 41.96930 | 36.03553 | 36949 ft | 536 kts | 96° |
| 2026-04-23 22:45 | 41.96322 | 36.13558 | 36955 ft | 538 kts | 96° |
| 2026-04-23 22:46 | 41.95704 | 36.23591 | 36955 ft | 538 kts | 96° |
| 2026-04-23 22:46 | 41.95078 | 36.33617 | 36955 ft | 538 kts | 96° |
| 2026-04-23 22:47 | 41.94443 | 36.43632 | 36957 ft | 538 kts | 96° |
| 2026-04-23 22:47 | 41.93803 | 36.53593 | 36957 ft | 538 kts | 96° |
| 2026-04-23 22:48 | 41.93150 | 36.63624 | 36959 ft | 538 kts | 96° |
| 2026-04-23 22:48 | 41.92488 | 36.73646 | 36959 ft | 538 kts | 97° |
| 2026-04-23 22:49 | 41.91819 | 36.83658 | 36962 ft | 539 kts | 97° |
| 2026-04-23 22:49 | 41.91142 | 36.93641 | 36960 ft | 540 kts | 97° |
| 2026-04-23 22:50 | 41.90215 | 37.03634 | 36964 ft | 537 kts | 106° |
| 2026-04-23 22:50 | 41.87776 | 37.13022 | 36965 ft | 532 kts | 115° |
| 2026-04-23 22:51 | 41.84916 | 37.22184 | 36966 ft | 532 kts | 117° |
| 2026-04-23 22:51 | 41.81985 | 37.31324 | 36968 ft | 532 kts | 117° |
| 2026-04-23 22:52 | 41.79083 | 37.40412 | 36971 ft | 533 kts | 117° |
| 2026-04-23 22:52 | 41.76167 | 37.49573 | 36977 ft | 533 kts | 117° |
| 2026-04-23 22:53 | 41.73258 | 37.58699 | 36976 ft | 533 kts | 117° |
| 2026-04-23 22:53 | 41.70333 | 37.67850 | 36984 ft | 533 kts | 117° |
| 2026-04-23 22:54 | 41.67416 | 37.76956 | 36976 ft | 534 kts | 118° |
| 2026-04-23 22:54 | 41.64468 | 37.86107 | 36977 ft | 535 kts | 118° |
| 2026-04-23 22:55 | 41.61519 | 37.95233 | 36985 ft | 535 kts | 118° |
| 2026-04-23 22:55 | 41.58578 | 38.04310 | 36986 ft | 535 kts | 118° |
| 2026-04-23 22:56 | 41.55613 | 38.13431 | 36994 ft | 534 kts | 118° |
| 2026-04-23 22:56 | 41.52642 | 38.22535 | 36998 ft | 534 kts | 118° |
| 2026-04-23 22:57 | 41.49667 | 38.31625 | 36989 ft | 535 kts | 118° |
| 2026-04-23 22:57 | 41.46672 | 38.40743 | 36998 ft | 537 kts | 118° |
| 2026-04-23 22:58 | 41.43684 | 38.49811 | 37002 ft | 537 kts | 118° |
| 2026-04-23 22:58 | 41.40679 | 38.58904 | 36988 ft | 536 kts | 119° |
| 2026-04-23 22:59 | 41.37665 | 38.67994 | 36997 ft | 536 kts | 119° |
| 2026-04-23 22:59 | 41.34643 | 38.77077 | 36997 ft | 536 kts | 119° |
| 2026-04-23 23:00 | 41.31635 | 38.86178 | 37027 ft | 536 kts | 119° |
| 2026-04-23 23:00 | 41.28682 | 38.95225 | 37005 ft | 536 kts | 118° |
| 2026-04-23 23:01 | 41.25705 | 39.04324 | 37007 ft | 536 kts | 119° |
| 2026-04-23 23:01 | 41.22713 | 39.13413 | 36994 ft | 535 kts | 119° |
| 2026-04-23 23:02 | 41.19713 | 39.22410 | 37012 ft | 535 kts | 120° |
| 2026-04-23 23:02 | 41.16572 | 39.31362 | 37019 ft | 534 kts | 121° |
| 2026-04-23 23:03 | 41.13405 | 39.40299 | 37020 ft | 534 kts | 121° |
| 2026-04-23 23:03 | 41.10253 | 39.49231 | 37023 ft | 534 kts | 121° |
| 2026-04-23 23:04 | 41.07105 | 39.58162 | 37021 ft | 534 kts | 121° |
| 2026-04-23 23:04 | 41.03974 | 39.67028 | 37004 ft | 534 kts | 121° |
| 2026-04-23 23:05 | 41.00899 | 39.76016 | 37021 ft | 540 kts | 115° |
| 2026-04-23 23:05 | 40.99861 | 39.80818 | 37021 ft | 546 kts | 104° |
| 2026-04-23 23:05 | 40.99397 | 39.85825 | 37024 ft | 550 kts | 97° |
| 2026-04-23 23:06 | 40.99038 | 39.95956 | 37024 ft | 552 kts | 94° |
| 2026-04-23 23:06 | 40.98847 | 40.06156 | 37026 ft | 553 kts | 94° |
| 2026-04-23 23:07 | 40.98635 | 40.16282 | 37044 ft | 553 kts | 94° |
| 2026-04-23 23:07 | 40.98385 | 40.26465 | 37043 ft | 554 kts | 95° |
| 2026-04-23 23:08 | 40.98101 | 40.36665 | 37044 ft | 554 kts | 95° |
| 2026-04-23 23:08 | 40.97805 | 40.46856 | 37032 ft | 553 kts | 95° |
| 2026-04-23 23:09 | 40.97503 | 40.57036 | 37040 ft | 553 kts | 95° |
| 2026-04-23 23:09 | 40.97194 | 40.67206 | 37040 ft | 553 kts | 95° |
| 2026-04-23 23:10 | 40.96880 | 40.77317 | 37020 ft | 553 kts | 95° |
| 2026-04-23 23:10 | 40.96554 | 40.87499 | 37006 ft | 552 kts | 95° |
| 2026-04-23 23:11 | 40.96226 | 40.97671 | 36995 ft | 553 kts | 95° |
| 2026-04-23 23:11 | 40.95884 | 41.07780 | 37006 ft | 552 kts | 95° |
| 2026-04-23 23:12 | 40.95529 | 41.17944 | 36957 ft | 552 kts | 96° |
| 2026-04-23 23:12 | 40.95165 | 41.28102 | 36922 ft | 551 kts | 96° |
| 2026-04-23 23:13 | 40.94799 | 41.38222 | 36950 ft | 547 kts | 96° |
| 2026-04-23 23:13 | 40.94426 | 41.48211 | 36944 ft | 548 kts | 96° |
| 2026-04-23 23:14 | 40.94025 | 41.58324 | 36946 ft | 549 kts | 96° |
| 2026-04-23 23:14 | 40.93638 | 41.68358 | 36919 ft | 549 kts | 96° |
| 2026-04-23 23:15 | 40.93243 | 41.78424 | 36953 ft | 547 kts | 96° |
| 2026-04-23 23:15 | 40.92835 | 41.88506 | 36939 ft | 549 kts | 96° |
| 2026-04-23 23:16 | 40.92411 | 41.98601 | 36919 ft | 549 kts | 96° |
| 2026-04-23 23:16 | 40.91982 | 42.08701 | 36918 ft | 549 kts | 96° |
| 2026-04-23 23:17 | 40.91547 | 42.18794 | 36893 ft | 549 kts | 96° |
| 2026-04-23 23:17 | 40.91103 | 42.28810 | 36861 ft | 549 kts | 96° |
| 2026-04-23 23:18 | 40.90647 | 42.38922 | 36865 ft | 549 kts | 96° |
| 2026-04-23 23:18 | 40.90182 | 42.49014 | 36855 ft | 548 kts | 97° |
| 2026-04-23 23:19 | 40.89710 | 42.59061 | 36845 ft | 545 kts | 96° |
| 2026-04-23 23:19 | 40.89236 | 42.69003 | 36846 ft | 544 kts | 97° |
| 2026-04-23 23:20 | 40.88750 | 42.78982 | 36836 ft | 544 kts | 97° |
| 2026-04-23 23:20 | 40.88258 | 42.88913 | 36841 ft | 544 kts | 97° |
| 2026-04-23 23:21 | 40.87755 | 42.98891 | 36833 ft | 541 kts | 97° |
| 2026-04-23 23:21 | 40.87247 | 43.08798 | 36841 ft | 540 kts | 97° |
| 2026-04-23 23:22 | 40.86731 | 43.18697 | 36843 ft | 540 kts | 97° |
| 2026-04-23 23:22 | 40.86206 | 43.28603 | 36847 ft | 540 kts | 97° |
| 2026-04-23 23:23 | 40.85673 | 43.38486 | 36856 ft | 540 kts | 97° |
| 2026-04-23 23:23 | 40.85133 | 43.48349 | 36866 ft | 543 kts | 98° |
| 2026-04-23 23:24 | 40.84668 | 43.56708 | 36859 ft | 545 kts | 98° |
| 2026-04-23 23:24 | 40.84110 | 43.66636 | 36865 ft | 545 kts | 98° |
| 2026-04-23 23:25 | 40.83643 | 43.76627 | 36859 ft | 545 kts | 96° |
| 2026-04-23 23:25 | 40.83363 | 43.86648 | 36865 ft | 545 kts | 95° |
| 2026-04-23 23:26 | 40.83077 | 43.96663 | 36861 ft | 544 kts | 95° |
| 2026-04-23 23:26 | 40.82750 | 44.06567 | 36852 ft | 542 kts | 96° |
| 2026-04-23 23:27 | 40.82401 | 44.16512 | 36841 ft | 542 kts | 96° |
| 2026-04-23 23:27 | 40.82041 | 44.26412 | 36815 ft | 538 kts | 95° |
| 2026-04-23 23:28 | 40.81676 | 44.36272 | 36818 ft | 537 kts | 95° |
| 2026-04-23 23:28 | 40.81305 | 44.46121 | 36811 ft | 537 kts | 96° |
| 2026-04-23 23:29 | 40.80926 | 44.55976 | 36798 ft | 537 kts | 96° |
| 2026-04-23 23:29 | 40.80543 | 44.65744 | 36803 ft | 535 kts | 96° |
| 2026-04-23 23:30 | 40.80147 | 44.75509 | 36800 ft | 529 kts | 96° |
| 2026-04-23 23:30 | 40.79747 | 44.85227 | 36797 ft | 529 kts | 96° |
| 2026-04-23 23:31 | 40.79340 | 44.94920 | 36804 ft | 530 kts | 96° |
| 2026-04-23 23:31 | 40.78925 | 45.04643 | 36778 ft | 532 kts | 97° |
| 2026-04-23 23:32 | 40.78498 | 45.14428 | 36805 ft | 535 kts | 97° |
| 2026-04-23 23:32 | 40.78066 | 45.24180 | 36806 ft | 535 kts | 97° |
| 2026-04-23 23:33 | 40.77622 | 45.33979 | 36802 ft | 535 kts | 97° |
| 2026-04-23 23:33 | 40.77170 | 45.43772 | 36801 ft | 535 kts | 97° |
| 2026-04-23 23:34 | 40.76692 | 45.53569 | 36809 ft | 536 kts | 99° |
| 2026-04-23 23:34 | 40.75846 | 45.63341 | 36796 ft | 536 kts | 102° |
| 2026-04-23 23:35 | 40.74861 | 45.73104 | 36805 ft | 536 kts | 102° |
| 2026-04-23 23:35 | 40.73918 | 45.82867 | 36790 ft | 536 kts | 101° |
| 2026-04-23 23:36 | 40.73018 | 45.92547 | 36792 ft | 535 kts | 101° |
| 2026-04-23 23:36 | 40.72119 | 46.02271 | 36775 ft | 531 kts | 101° |
| 2026-04-23 23:37 | 40.71213 | 46.11940 | 36798 ft | 531 kts | 101° |
| 2026-04-23 23:37 | 40.70298 | 46.21600 | 36797 ft | 531 kts | 101° |
| 2026-04-23 23:38 | 40.69375 | 46.31247 | 36790 ft | 529 kts | 102° |
| 2026-04-23 23:38 | 40.68454 | 46.40808 | 36803 ft | 527 kts | 102° |
| 2026-04-23 23:39 | 40.67522 | 46.50374 | 36798 ft | 527 kts | 102° |
| 2026-04-23 23:39 | 40.66578 | 46.59978 | 36790 ft | 527 kts | 102° |
| 2026-04-23 23:40 | 40.65625 | 46.69588 | 36782 ft | 530 kts | 102° |
| 2026-04-23 23:40 | 40.64665 | 46.79185 | 36774 ft | 532 kts | 102° |
| 2026-04-23 23:41 | 40.63691 | 46.88863 | 36777 ft | 532 kts | 102° |
| 2026-04-23 23:41 | 40.62710 | 46.98525 | 36783 ft | 532 kts | 102° |
| 2026-04-23 23:42 | 40.61719 | 47.08197 | 36780 ft | 532 kts | 102° |
| 2026-04-23 23:42 | 40.60782 | 47.17790 | 36780 ft | 534 kts | 97° |
| 2026-04-23 23:43 | 40.60394 | 47.27593 | 36793 ft | 537 kts | 96° |
| 2026-04-23 23:43 | 40.60114 | 47.37435 | 36789 ft | 538 kts | 96° |
| 2026-04-23 23:44 | 40.59844 | 47.47269 | 36793 ft | 538 kts | 96° |
| 2026-04-23 23:44 | 40.59556 | 47.57125 | 36792 ft | 537 kts | 96° |
| 2026-04-23 23:45 | 40.59252 | 47.66954 | 36789 ft | 537 kts | 95° |
| 2026-04-23 23:45 | 40.58942 | 47.76721 | 36793 ft | 537 kts | 95° |
| 2026-04-23 23:46 | 40.58622 | 47.86550 | 36796 ft | 537 kts | 96° |
| 2026-04-23 23:46 | 40.57852 | 47.96274 | 36791 ft | 530 kts | 108° |
| 2026-04-23 23:47 | 40.55808 | 48.05548 | 36802 ft | 526 kts | 112° |
| 2026-04-23 23:47 | 40.53562 | 48.14643 | 36784 ft | 526 kts | 112° |
| 2026-04-23 23:48 | 40.51278 | 48.23764 | 36795 ft | 525 kts | 112° |
| 2026-04-23 23:48 | 40.49085 | 48.32581 | 36795 ft | 523 kts | 112° |
| 2026-04-23 23:49 | 40.45707 | 48.46187 | 36799 ft | 522 kts | 112° |
| 2026-04-23 23:49 | 40.43446 | 48.55254 | 36799 ft | 522 kts | 112° |
| 2026-04-23 23:50 | 40.41177 | 48.64316 | 36805 ft | 521 kts | 112° |
| 2026-04-23 23:50 | 40.38906 | 48.73350 | 36807 ft | 521 kts | 112° |
| 2026-04-23 23:51 | 40.36643 | 48.82320 | 36806 ft | 521 kts | 112° |
| 2026-04-23 23:51 | 40.34358 | 48.91343 | 36803 ft | 520 kts | 112° |
| 2026-04-23 23:52 | 40.32073 | 49.00334 | 36809 ft | 520 kts | 112° |
| 2026-04-23 23:52 | 40.29780 | 49.09323 | 36813 ft | 520 kts | 113° |
| 2026-04-23 23:53 | 40.27466 | 49.18258 | 36809 ft | 520 kts | 113° |
| 2026-04-23 23:53 | 40.25128 | 49.27225 | 36810 ft | 521 kts | 113° |
| 2026-04-23 23:54 | 40.22792 | 49.36237 | 36811 ft | 521 kts | 113° |
| 2026-04-23 23:54 | 40.20462 | 49.45227 | 36813 ft | 521 kts | 113° |
| 2026-04-23 23:55 | 40.18670 | 49.54460 | 36813 ft | 528 kts | 102° |
| 2026-04-23 23:55 | 40.17687 | 49.64026 | 36816 ft | 532 kts | 100° |
| 2026-04-23 23:56 | 40.16831 | 49.73589 | 36814 ft | 533 kts | 99° |
| 2026-04-23 23:56 | 40.15963 | 49.83230 | 36812 ft | 534 kts | 99° |
| 2026-04-23 23:57 | 40.15068 | 49.92870 | 36803 ft | 534 kts | 99° |
| 2026-04-23 23:57 | 40.14154 | 50.02521 | 36807 ft | 534 kts | 100° |
| 2026-04-23 23:58 | 40.13233 | 50.12149 | 36807 ft | 534 kts | 100° |
| 2026-04-23 23:58 | 40.12302 | 50.21790 | 36807 ft | 534 kts | 99° |
| 2026-04-23 23:59 | 40.11365 | 50.31429 | 36802 ft | 534 kts | 100° |
| 2026-04-23 23:59 | 40.10427 | 50.40993 | 36805 ft | 534 kts | 100° |
| 2026-04-24 00:00 | 40.09474 | 50.50622 | 36805 ft | 534 kts | 100° |
| 2026-04-24 00:00 | 40.08514 | 50.60231 | 36805 ft | 534 kts | 100° |
| 2026-04-24 00:01 | 40.07545 | 50.69862 | 36815 ft | 534 kts | 100° |
| 2026-04-24 00:01 | 40.06565 | 50.79508 | 36809 ft | 536 kts | 100° |
| 2026-04-24 00:02 | 40.05581 | 50.89109 | 36811 ft | 536 kts | 100° |
| 2026-04-24 00:02 | 40.04585 | 50.98765 | 36817 ft | 536 kts | 100° |
| 2026-04-24 00:03 | 40.03579 | 51.08424 | 36817 ft | 536 kts | 101° |
| 2026-04-24 00:03 | 40.02565 | 51.18082 | 36811 ft | 536 kts | 100° |
| 2026-04-24 00:04 | 40.01545 | 51.27722 | 36806 ft | 536 kts | 100° |
| 2026-04-24 00:04 | 40.00521 | 51.37314 | 36827 ft | 536 kts | 101° |
| 2026-04-24 00:05 | 39.99484 | 51.46956 | 36813 ft | 536 kts | 100° |
| 2026-04-24 00:05 | 39.97966 | 51.56389 | 36811 ft | 533 kts | 106° |
| 2026-04-24 00:06 | 39.96219 | 51.65841 | 36816 ft | 533 kts | 107° |
| 2026-04-24 00:06 | 39.94444 | 51.75225 | 36812 ft | 532 kts | 107° |
| 2026-04-24 00:07 | 39.92680 | 51.84536 | 36813 ft | 532 kts | 107° |
| 2026-04-24 00:07 | 39.90903 | 51.93906 | 36811 ft | 532 kts | 107° |
| 2026-04-24 00:08 | 39.89123 | 52.03266 | 36815 ft | 532 kts | 107° |
| 2026-04-24 00:08 | 39.87336 | 52.12617 | 36815 ft | 532 kts | 107° |
| 2026-04-24 00:09 | 39.85842 | 52.20399 | 36812 ft | 532 kts | 107° |
| 2026-04-24 00:09 | 39.84043 | 52.29731 | 36811 ft | 532 kts | 107° |
| 2026-04-24 00:10 | 39.82244 | 52.39019 | 36815 ft | 532 kts | 107° |
| 2026-04-24 00:10 | 39.80424 | 52.48367 | 36812 ft | 532 kts | 107° |
| 2026-04-24 00:11 | 39.78601 | 52.57690 | 36801 ft | 532 kts | 107° |
| 2026-04-24 00:11 | 39.76769 | 52.67014 | 36812 ft | 533 kts | 107° |
| 2026-04-24 00:12 | 39.74935 | 52.76310 | 36812 ft | 533 kts | 107° |
| 2026-04-24 00:12 | 39.73087 | 52.85643 | 36824 ft | 533 kts | 107° |
| 2026-04-24 00:13 | 39.71269 | 52.94987 | 36813 ft | 533 kts | 107° |
| 2026-04-24 00:13 | 39.69455 | 53.04335 | 36815 ft | 534 kts | 107° |
| 2026-04-24 00:14 | 39.67627 | 53.13691 | 36815 ft | 534 kts | 107° |
| 2026-04-24 00:14 | 39.65788 | 53.23042 | 36818 ft | 534 kts | 107° |
| 2026-04-24 00:15 | 39.63952 | 53.32332 | 36817 ft | 535 kts | 107° |
| 2026-04-24 00:15 | 39.62102 | 53.41647 | 36813 ft | 535 kts | 107° |
| 2026-04-24 00:16 | 39.60228 | 53.51043 | 36816 ft | 535 kts | 107° |
| 2026-04-24 00:16 | 39.58365 | 53.60340 | 36797 ft | 534 kts | 107° |
| 2026-04-24 00:17 | 39.56491 | 53.69654 | 36810 ft | 534 kts | 107° |
| 2026-04-24 00:17 | 39.54606 | 53.78979 | 36808 ft | 534 kts | 107° |
| 2026-04-24 00:18 | 39.52727 | 53.88228 | 36816 ft | 534 kts | 107° |
| 2026-04-24 00:18 | 39.50828 | 53.97538 | 36828 ft | 534 kts | 107° |
| 2026-04-24 00:19 | 39.48925 | 54.06822 | 36824 ft | 533 kts | 107° |
| 2026-04-24 00:19 | 39.46990 | 54.16099 | 36822 ft | 532 kts | 108° |
| 2026-04-24 00:20 | 39.45045 | 54.25348 | 36820 ft | 533 kts | 108° |
| 2026-04-24 00:20 | 39.43106 | 54.34547 | 36825 ft | 532 kts | 108° |
| 2026-04-24 00:21 | 39.41160 | 54.43756 | 36826 ft | 532 kts | 108° |
| 2026-04-24 00:21 | 39.39193 | 54.53031 | 36842 ft | 532 kts | 108° |
| 2026-04-24 00:22 | 39.37225 | 54.62268 | 36840 ft | 532 kts | 108° |
| 2026-04-24 00:22 | 39.35250 | 54.71497 | 36837 ft | 532 kts | 108° |
| 2026-04-24 00:23 | 39.33270 | 54.80709 | 36840 ft | 532 kts | 108° |
| 2026-04-24 00:23 | 39.31297 | 54.89852 | 36837 ft | 532 kts | 108° |
| 2026-04-24 00:24 | 39.29301 | 54.99062 | 36831 ft | 532 kts | 108° |
| 2026-04-24 00:24 | 39.27297 | 55.08271 | 36840 ft | 531 kts | 108° |
| 2026-04-24 00:25 | 39.25292 | 55.17442 | 36846 ft | 531 kts | 108° |
| 2026-04-24 00:25 | 39.23277 | 55.26624 | 36850 ft | 531 kts | 108° |
| 2026-04-24 00:26 | 39.21268 | 55.35743 | 36843 ft | 531 kts | 108° |
| 2026-04-24 00:26 | 39.19245 | 55.44887 | 36853 ft | 531 kts | 108° |
| 2026-04-24 00:27 | 39.17208 | 55.54053 | 36847 ft | 531 kts | 109° |
| 2026-04-24 00:27 | 39.15186 | 55.63137 | 36840 ft | 530 kts | 109° |
| 2026-04-24 00:28 | 39.13129 | 55.72287 | 36851 ft | 530 kts | 109° |
| 2026-04-24 00:28 | 39.11068 | 55.81416 | 36857 ft | 530 kts | 109° |
| 2026-04-24 00:29 | 39.09017 | 55.90477 | 36854 ft | 530 kts | 109° |
| 2026-04-24 00:29 | 39.06948 | 55.99586 | 36849 ft | 530 kts | 109° |
| 2026-04-24 00:30 | 39.04866 | 56.08711 | 36853 ft | 531 kts | 109° |
| 2026-04-24 00:30 | 39.02777 | 56.17833 | 36853 ft | 531 kts | 109° |
| 2026-04-24 00:31 | 39.00686 | 56.26931 | 36853 ft | 531 kts | 109° |
| 2026-04-24 00:31 | 38.98499 | 56.36005 | 36850 ft | 531 kts | 112° |
| 2026-04-24 00:32 | 38.96016 | 56.44872 | 36839 ft | 530 kts | 113° |
| 2026-04-24 00:32 | 38.93482 | 56.53776 | 36838 ft | 531 kts | 113° |
| 2026-04-24 00:33 | 38.90986 | 56.62705 | 36818 ft | 531 kts | 112° |
| 2026-04-24 00:33 | 38.88503 | 56.71666 | 36837 ft | 532 kts | 112° |
| 2026-04-24 00:34 | 38.86021 | 56.80614 | 36831 ft | 532 kts | 112° |
| 2026-04-24 00:34 | 38.83526 | 56.89570 | 36829 ft | 532 kts | 112° |
| 2026-04-24 00:35 | 38.81027 | 56.98505 | 36817 ft | 532 kts | 112° |
| 2026-04-24 00:35 | 38.78530 | 57.07398 | 36823 ft | 533 kts | 113° |
| 2026-04-24 00:36 | 38.76013 | 57.16335 | 36822 ft | 532 kts | 113° |
| 2026-04-24 00:36 | 38.73490 | 57.25262 | 36821 ft | 532 kts | 113° |
| 2026-04-24 00:37 | 38.70977 | 57.34126 | 36822 ft | 532 kts | 113° |
| 2026-04-24 00:37 | 38.68439 | 57.43043 | 36804 ft | 532 kts | 113° |
| 2026-04-24 00:38 | 38.65896 | 57.51951 | 36801 ft | 532 kts | 113° |
| 2026-04-24 00:38 | 38.63347 | 57.60848 | 36780 ft | 532 kts | 113° |
| 2026-04-24 00:39 | 38.60767 | 57.69726 | 36807 ft | 532 kts | 115° |
| 2026-04-24 00:39 | 38.57800 | 57.78306 | 36802 ft | 529 kts | 118° |
| 2026-04-24 00:40 | 38.54684 | 57.86828 | 36798 ft | 529 kts | 118° |
| 2026-04-24 00:40 | 38.51613 | 57.95387 | 36796 ft | 529 kts | 118° |
| 2026-04-24 00:41 | 38.48590 | 58.03948 | 36797 ft | 528 kts | 118° |
| 2026-04-24 00:41 | 38.45575 | 58.12503 | 36800 ft | 528 kts | 118° |
| 2026-04-24 00:42 | 38.42574 | 58.20988 | 36779 ft | 528 kts | 118° |
| 2026-04-24 00:42 | 38.39383 | 58.29414 | 36800 ft | 525 kts | 124° |
| 2026-04-24 00:43 | 38.35708 | 58.37453 | 36794 ft | 524 kts | 125° |
| 2026-04-24 00:43 | 38.31944 | 58.45426 | 36793 ft | 524 kts | 125° |
| 2026-04-24 00:44 | 38.28192 | 58.53331 | 36786 ft | 524 kts | 126° |
| 2026-04-24 00:44 | 38.24424 | 58.61278 | 36794 ft | 524 kts | 126° |
| 2026-04-24 00:45 | 38.20658 | 58.69215 | 36795 ft | 524 kts | 126° |
| 2026-04-24 00:45 | 38.16879 | 58.77162 | 36790 ft | 524 kts | 126° |
| 2026-04-24 00:46 | 38.13112 | 58.85065 | 36794 ft | 526 kts | 126° |
| 2026-04-24 00:46 | 38.09318 | 58.93002 | 36815 ft | 526 kts | 126° |
| 2026-04-24 00:47 | 38.05515 | 59.00943 | 36773 ft | 526 kts | 126° |
| 2026-04-24 00:47 | 38.01703 | 59.08880 | 36807 ft | 526 kts | 126° |
| 2026-04-24 00:48 | 37.97886 | 59.16809 | 36815 ft | 526 kts | 126° |
| 2026-04-24 00:48 | 37.94090 | 59.24676 | 36815 ft | 526 kts | 126° |
| 2026-04-24 00:49 | 37.90261 | 59.32589 | 36823 ft | 526 kts | 126° |
| 2026-04-24 00:49 | 37.86033 | 59.40100 | 36831 ft | 522 kts | 132° |
| 2026-04-24 00:50 | 37.81641 | 59.47442 | 36840 ft | 522 kts | 133° |
| 2026-04-24 00:50 | 37.77224 | 59.54743 | 36843 ft | 523 kts | 133° |
| 2026-04-24 00:51 | 37.72828 | 59.62003 | 36853 ft | 523 kts | 133° |
| 2026-04-24 00:51 | 37.68406 | 59.69308 | 36855 ft | 523 kts | 133° |
| 2026-04-24 00:52 | 37.63978 | 59.76611 | 36853 ft | 523 kts | 133° |
| 2026-04-24 00:52 | 37.59574 | 59.83857 | 36870 ft | 524 kts | 133° |
| 2026-04-24 00:53 | 37.55139 | 59.91140 | 36871 ft | 523 kts | 133° |
| 2026-04-24 00:53 | 37.50699 | 59.98415 | 36851 ft | 522 kts | 133° |
| 2026-04-24 00:54 | 37.47014 | 60.04440 | 36877 ft | 523 kts | 133° |
| 2026-04-24 00:54 | 37.42568 | 60.11693 | 36880 ft | 523 kts | 133° |
| 2026-04-24 00:55 | 37.38104 | 60.18961 | 36885 ft | 523 kts | 133° |
| 2026-04-24 00:55 | 37.33651 | 60.26195 | 36888 ft | 523 kts | 133° |
| 2026-04-24 00:56 | 37.29192 | 60.33423 | 36890 ft | 523 kts | 133° |
| 2026-04-24 00:56 | 37.24759 | 60.40593 | 36893 ft | 523 kts | 133° |
| 2026-04-24 00:57 | 37.20291 | 60.47805 | 36901 ft | 523 kts | 133° |
| 2026-04-24 00:58 | 37.13571 | 60.58621 | 36900 ft | 523 kts | 133° |
| 2026-04-24 00:58 | 37.09085 | 60.65822 | 36904 ft | 523 kts | 134° |
| 2026-04-24 00:59 | 37.04620 | 60.72974 | 36895 ft | 524 kts | 134° |
| 2026-04-24 00:59 | 37.00120 | 60.80168 | 36910 ft | 524 kts | 134° |
| 2026-04-24 01:00 | 36.95644 | 60.87385 | 36907 ft | 526 kts | 132° |
| 2026-04-24 01:00 | 36.91424 | 60.94902 | 36898 ft | 528 kts | 130° |
| 2026-04-24 01:01 | 36.87297 | 61.02430 | 36919 ft | 529 kts | 130° |
| 2026-04-24 01:01 | 36.83097 | 61.09968 | 36908 ft | 528 kts | 130° |
| 2026-04-24 01:02 | 36.78877 | 61.17447 | 36906 ft | 527 kts | 131° |
| 2026-04-24 01:02 | 36.74634 | 61.24927 | 36911 ft | 528 kts | 130° |
| 2026-04-24 01:03 | 36.70378 | 61.32415 | 36910 ft | 529 kts | 130° |
| 2026-04-24 01:03 | 36.66121 | 61.39895 | 36912 ft | 529 kts | 131° |
| 2026-04-24 01:04 | 36.61880 | 61.47333 | 36902 ft | 529 kts | 130° |
| 2026-04-24 01:04 | 36.57560 | 61.54768 | 36917 ft | 529 kts | 131° |
| 2026-04-24 01:05 | 36.53199 | 61.62152 | 36922 ft | 529 kts | 131° |
| 2026-04-24 01:05 | 36.48847 | 61.69520 | 36920 ft | 529 kts | 131° |
| 2026-04-24 01:06 | 36.44487 | 61.76911 | 36922 ft | 529 kts | 131° |
| 2026-04-24 01:06 | 36.40154 | 61.84248 | 36928 ft | 529 kts | 131° |
| 2026-04-24 01:07 | 36.35784 | 61.91633 | 36924 ft | 529 kts | 131° |
| 2026-04-24 01:07 | 36.31423 | 61.98986 | 36936 ft | 529 kts | 132° |
| 2026-04-24 01:08 | 36.27061 | 62.06324 | 36936 ft | 528 kts | 132° |
| 2026-04-24 01:08 | 36.22721 | 62.13609 | 36919 ft | 528 kts | 132° |
| 2026-04-24 01:09 | 36.18350 | 62.20930 | 36936 ft | 528 kts | 132° |
| 2026-04-24 01:09 | 36.13975 | 62.28243 | 36933 ft | 528 kts | 132° |
| 2026-04-24 01:10 | 36.09595 | 62.35548 | 36935 ft | 528 kts | 132° |
| 2026-04-24 01:10 | 36.05208 | 62.42849 | 36934 ft | 528 kts | 132° |
| 2026-04-24 01:11 | 36.00850 | 62.50087 | 36932 ft | 528 kts | 132° |
| 2026-04-24 01:11 | 35.96464 | 62.57355 | 36939 ft | 528 kts | 132° |
| 2026-04-24 01:12 | 35.92056 | 62.64646 | 36939 ft | 528 kts | 132° |
| 2026-04-24 01:12 | 35.87645 | 62.71926 | 36943 ft | 528 kts | 132° |
| 2026-04-24 01:13 | 35.83241 | 62.79179 | 36941 ft | 529 kts | 132° |
| 2026-04-24 01:13 | 35.78850 | 62.86396 | 36941 ft | 529 kts | 132° |
| 2026-04-24 01:14 | 35.74429 | 62.93646 | 36942 ft | 528 kts | 133° |
| 2026-04-24 01:14 | 35.70005 | 63.00886 | 36946 ft | 528 kts | 133° |
| 2026-04-24 01:15 | 35.65585 | 63.08105 | 36950 ft | 528 kts | 133° |
| 2026-04-24 01:15 | 35.61184 | 63.15277 | 36949 ft | 528 kts | 133° |
| 2026-04-24 01:16 | 35.56753 | 63.22482 | 36949 ft | 528 kts | 133° |
| 2026-04-24 01:16 | 35.52285 | 63.29633 | 36950 ft | 528 kts | 133° |
| 2026-04-24 01:17 | 35.47790 | 63.36773 | 36952 ft | 527 kts | 133° |
| 2026-04-24 01:17 | 35.43309 | 63.43894 | 36963 ft | 527 kts | 133° |
| 2026-04-24 01:18 | 35.38820 | 63.51022 | 36969 ft | 528 kts | 133° |
| 2026-04-24 01:18 | 35.34334 | 63.58136 | 36974 ft | 527 kts | 134° |
| 2026-04-24 01:19 | 35.29875 | 63.65192 | 36986 ft | 527 kts | 134° |
| 2026-04-24 01:19 | 35.25395 | 63.72306 | 36988 ft | 527 kts | 133° |
| 2026-04-24 01:20 | 35.20915 | 63.79414 | 36977 ft | 527 kts | 134° |
| 2026-04-24 01:20 | 35.16424 | 63.86523 | 37010 ft | 527 kts | 134° |
| 2026-04-24 01:21 | 35.11926 | 63.93626 | 37019 ft | 527 kts | 134° |
| 2026-04-24 01:21 | 35.07433 | 64.00707 | 37026 ft | 527 kts | 134° |
| 2026-04-24 01:22 | 35.02964 | 64.07737 | 37022 ft | 527 kts | 134° |
| 2026-04-24 01:22 | 34.98469 | 64.14793 | 37032 ft | 525 kts | 134° |
| 2026-04-24 01:23 | 34.93972 | 64.21837 | 37036 ft | 525 kts | 134° |
| 2026-04-24 01:23 | 34.89501 | 64.28826 | 37053 ft | 526 kts | 134° |
| 2026-04-24 01:24 | 34.85005 | 64.35842 | 37040 ft | 524 kts | 134° |
| 2026-04-24 01:24 | 34.80512 | 64.42839 | 37073 ft | 523 kts | 134° |
| 2026-04-24 01:25 | 34.76066 | 64.49751 | 37076 ft | 521 kts | 134° |
| 2026-04-24 01:25 | 34.71586 | 64.56700 | 37087 ft | 521 kts | 134° |
| 2026-04-24 01:26 | 34.67105 | 64.63640 | 37086 ft | 522 kts | 135° |
| 2026-04-24 01:26 | 34.62615 | 64.70573 | 37098 ft | 522 kts | 135° |
| 2026-04-24 01:27 | 34.58117 | 64.77511 | 37105 ft | 522 kts | 135° |
| 2026-04-24 01:27 | 34.53641 | 64.84400 | 37107 ft | 522 kts | 135° |
| 2026-04-24 01:28 | 34.49135 | 64.91325 | 37106 ft | 522 kts | 135° |
| 2026-04-24 01:28 | 34.44625 | 64.98233 | 37117 ft | 522 kts | 135° |
| 2026-04-24 01:29 | 34.40102 | 65.05126 | 37111 ft | 522 kts | 135° |
| 2026-04-24 01:29 | 34.35603 | 65.11976 | 37120 ft | 522 kts | 135° |
| 2026-04-24 01:30 | 34.31076 | 65.18855 | 37113 ft | 523 kts | 135° |
| 2026-04-24 01:30 | 34.26540 | 65.25739 | 37121 ft | 523 kts | 135° |
| 2026-04-24 01:31 | 34.21999 | 65.32619 | 37117 ft | 523 kts | 135° |
| 2026-04-24 01:31 | 34.17443 | 65.39506 | 37133 ft | 524 kts | 135° |
| 2026-04-24 01:32 | 34.12910 | 65.46344 | 37130 ft | 527 kts | 134° |
| 2026-04-24 01:32 | 34.08313 | 65.53265 | 37131 ft | 528 kts | 134° |
| 2026-04-24 01:33 | 34.03715 | 65.60195 | 37133 ft | 528 kts | 134° |
| 2026-04-24 01:33 | 33.99111 | 65.67119 | 37136 ft | 529 kts | 134° |
| 2026-04-24 01:34 | 33.94501 | 65.74041 | 37124 ft | 529 kts | 134° |
| 2026-04-24 01:34 | 33.89918 | 65.80910 | 37131 ft | 529 kts | 134° |
| 2026-04-24 01:35 | 33.85294 | 65.87827 | 37141 ft | 529 kts | 134° |
| 2026-04-24 01:35 | 33.80671 | 65.94729 | 37102 ft | 529 kts | 134° |
| 2026-04-24 01:36 | 33.76051 | 66.01613 | 37131 ft | 529 kts | 134° |
| 2026-04-24 01:36 | 33.71416 | 66.08502 | 37111 ft | 530 kts | 134° |
| 2026-04-24 01:37 | 33.66798 | 66.15359 | 37114 ft | 531 kts | 134° |
| 2026-04-24 01:37 | 33.62150 | 66.22247 | 37071 ft | 530 kts | 134° |
| 2026-04-24 01:38 | 33.57516 | 66.29101 | 37086 ft | 528 kts | 133° |
| 2026-04-24 01:38 | 33.53657 | 66.34798 | 37089 ft | 527 kts | 134° |
| 2026-04-24 01:39 | 33.49028 | 66.41619 | 37082 ft | 527 kts | 134° |
| 2026-04-24 01:39 | 33.44389 | 66.48438 | 37078 ft | 526 kts | 134° |
| 2026-04-24 01:40 | 33.39752 | 66.55213 | 37091 ft | 526 kts | 134° |
| 2026-04-24 01:40 | 33.35144 | 66.61934 | 37092 ft | 525 kts | 134° |
| 2026-04-24 01:41 | 33.30511 | 66.68678 | 37112 ft | 524 kts | 134° |
| 2026-04-24 01:41 | 33.25875 | 66.75416 | 37115 ft | 524 kts | 134° |
| 2026-04-24 01:42 | 33.21236 | 66.82140 | 37125 ft | 525 kts | 134° |
| 2026-04-24 01:42 | 33.16582 | 66.88881 | 37125 ft | 525 kts | 134° |
| 2026-04-24 01:43 | 33.11930 | 66.95606 | 37119 ft | 524 kts | 134° |
| 2026-04-24 01:43 | 33.07285 | 67.02310 | 37121 ft | 524 kts | 134° |
| 2026-04-24 01:44 | 33.02672 | 67.08953 | 37115 ft | 524 kts | 134° |
| 2026-04-24 01:44 | 32.98024 | 67.15635 | 37111 ft | 524 kts | 134° |
| 2026-04-24 01:45 | 32.93369 | 67.22314 | 37087 ft | 524 kts | 134° |
| 2026-04-24 01:45 | 32.88719 | 67.28976 | 37070 ft | 522 kts | 134° |
| 2026-04-24 01:46 | 32.84077 | 67.35611 | 37062 ft | 522 kts | 134° |
| 2026-04-24 01:46 | 32.79422 | 67.42253 | 37048 ft | 523 kts | 134° |
| 2026-04-24 01:47 | 32.74735 | 67.48863 | 37049 ft | 522 kts | 135° |
| 2026-04-24 01:47 | 32.69915 | 67.55310 | 37041 ft | 522 kts | 136° |
| 2026-04-24 01:48 | 32.65105 | 67.61685 | 37033 ft | 521 kts | 136° |
| 2026-04-24 01:48 | 32.60277 | 67.68119 | 37037 ft | 522 kts | 136° |
| 2026-04-24 01:49 | 32.55455 | 67.74564 | 37034 ft | 522 kts | 136° |
| 2026-04-24 01:49 | 32.50631 | 67.81010 | 37031 ft | 522 kts | 136° |
| 2026-04-24 01:50 | 32.45898 | 67.87571 | 37010 ft | 523 kts | 133° |
| 2026-04-24 01:50 | 32.41327 | 67.94238 | 37030 ft | 525 kts | 133° |
| 2026-04-24 01:51 | 32.36715 | 68.00940 | 37040 ft | 525 kts | 133° |
| 2026-04-24 01:51 | 32.32079 | 68.07604 | 37035 ft | 525 kts | 133° |
| 2026-04-24 01:52 | 32.27448 | 68.14219 | 37035 ft | 525 kts | 133° |
| 2026-04-24 01:52 | 32.22785 | 68.20864 | 37036 ft | 525 kts | 133° |
| 2026-04-24 01:53 | 32.18120 | 68.27504 | 37044 ft | 524 kts | 133° |
| 2026-04-24 01:53 | 32.13460 | 68.34127 | 37046 ft | 524 kts | 133° |
| 2026-04-24 01:54 | 32.08815 | 68.40718 | 37044 ft | 524 kts | 133° |
| 2026-04-24 01:54 | 32.04147 | 68.47329 | 37046 ft | 524 kts | 133° |
| 2026-04-24 01:55 | 31.99473 | 68.53937 | 37048 ft | 524 kts | 133° |
| 2026-04-24 01:55 | 31.94804 | 68.60524 | 37045 ft | 523 kts | 133° |
| 2026-04-24 01:56 | 31.90166 | 68.67059 | 37043 ft | 523 kts | 133° |
| 2026-04-24 01:56 | 31.85499 | 68.73622 | 37032 ft | 523 kts | 133° |
| 2026-04-24 01:57 | 31.80820 | 68.80191 | 37035 ft | 524 kts | 133° |
| 2026-04-24 01:57 | 31.76135 | 68.86757 | 37025 ft | 524 kts | 133° |
| 2026-04-24 01:58 | 31.71438 | 68.93328 | 37014 ft | 524 kts | 133° |
| 2026-04-24 01:58 | 31.66741 | 68.99887 | 37012 ft | 525 kts | 133° |
| 2026-04-24 01:59 | 31.62168 | 69.06505 | 37010 ft | 525 kts | 130° |
| 2026-04-24 01:59 | 31.57668 | 69.13282 | 36997 ft | 525 kts | 130° |
| 2026-04-24 02:00 | 31.53171 | 69.20023 | 36981 ft | 525 kts | 130° |
| 2026-04-24 02:00 | 31.48659 | 69.26723 | 36991 ft | 522 kts | 131° |
| 2026-04-24 02:01 | 31.44156 | 69.33372 | 36990 ft | 520 kts | 131° |
| 2026-04-24 02:01 | 31.39682 | 69.39967 | 36988 ft | 518 kts | 131° |
| 2026-04-24 02:02 | 31.34992 | 69.46339 | 36991 ft | 513 kts | 140° |
| 2026-04-24 02:02 | 31.29592 | 69.51759 | 36988 ft | 511 kts | 143° |
| 2026-04-24 02:03 | 31.21313 | 69.59578 | 36967 ft | 507 kts | 144° |
| 2026-04-24 02:03 | 31.15822 | 69.64740 | 36983 ft | 506 kts | 144° |
| 2026-04-24 02:04 | 31.10370 | 69.69881 | 36979 ft | 506 kts | 144° |
| 2026-04-24 02:04 | 31.04886 | 69.75054 | 36975 ft | 506 kts | 144° |
| 2026-04-24 02:05 | 30.99402 | 69.80221 | 36964 ft | 506 kts | 144° |
| 2026-04-24 02:05 | 30.93931 | 69.85367 | 36966 ft | 505 kts | 143° |
| 2026-04-24 02:06 | 30.88499 | 69.90470 | 36965 ft | 502 kts | 143° |
| 2026-04-24 02:06 | 30.83059 | 69.95573 | 36947 ft | 501 kts | 143° |
| 2026-04-24 02:07 | 30.77622 | 70.00663 | 36937 ft | 501 kts | 143° |
| 2026-04-24 02:07 | 30.72186 | 70.05745 | 36933 ft | 501 kts | 143° |
| 2026-04-24 02:08 | 30.66736 | 70.10831 | 36894 ft | 502 kts | 143° |
| 2026-04-24 02:08 | 30.61324 | 70.15876 | 36899 ft | 502 kts | 143° |
| 2026-04-24 02:09 | 30.55874 | 70.20949 | 36876 ft | 502 kts | 144° |
| 2026-04-24 02:09 | 30.50419 | 70.26018 | 36853 ft | 502 kts | 144° |
| 2026-04-24 02:10 | 30.44999 | 70.31048 | 36858 ft | 501 kts | 144° |
| 2026-04-24 02:10 | 30.39536 | 70.36110 | 36824 ft | 501 kts | 144° |
| 2026-04-24 02:11 | 30.34112 | 70.41129 | 36818 ft | 501 kts | 144° |
| 2026-04-24 02:11 | 30.28651 | 70.46175 | 36809 ft | 502 kts | 144° |
| 2026-04-24 02:12 | 30.23187 | 70.51216 | 36795 ft | 502 kts | 144° |
| 2026-04-24 02:12 | 30.17749 | 70.56289 | 36795 ft | 502 kts | 143° |
| 2026-04-24 02:13 | 30.12384 | 70.61387 | 36783 ft | 502 kts | 143° |
| 2026-04-24 02:13 | 30.06983 | 70.66513 | 36778 ft | 502 kts | 143° |
| 2026-04-24 02:14 | 30.01562 | 70.71635 | 36780 ft | 503 kts | 143° |
| 2026-04-24 02:14 | 29.96143 | 70.76739 | 36774 ft | 503 kts | 143° |
| 2026-04-24 02:15 | 29.90741 | 70.81819 | 36776 ft | 503 kts | 143° |
| 2026-04-24 02:15 | 29.85302 | 70.86928 | 36777 ft | 503 kts | 143° |
| 2026-04-24 02:16 | 29.79872 | 70.92020 | 36776 ft | 502 kts | 143° |
| 2026-04-24 02:16 | 29.74488 | 70.97063 | 36779 ft | 502 kts | 143° |
| 2026-04-24 02:17 | 29.69065 | 71.02135 | 36776 ft | 502 kts | 143° |
| 2026-04-24 02:17 | 29.63717 | 71.07314 | 36776 ft | 503 kts | 141° |
| 2026-04-24 02:18 | 29.58514 | 71.12712 | 36767 ft | 504 kts | 140° |
| 2026-04-24 02:18 | 29.53310 | 71.18111 | 36776 ft | 504 kts | 141° |
| 2026-04-24 02:19 | 29.48069 | 71.23479 | 36780 ft | 504 kts | 141° |
| 2026-04-24 02:19 | 29.42809 | 71.28830 | 36779 ft | 504 kts | 141° |
| 2026-04-24 02:20 | 29.37584 | 71.34132 | 36779 ft | 504 kts | 141° |
| 2026-04-24 02:20 | 29.32321 | 71.39468 | 36779 ft | 505 kts | 141° |
| 2026-04-24 02:21 | 29.27045 | 71.44824 | 36782 ft | 506 kts | 141° |
| 2026-04-24 02:21 | 29.21815 | 71.50175 | 36782 ft | 506 kts | 140° |
| 2026-04-24 02:22 | 29.16557 | 71.55554 | 36788 ft | 506 kts | 140° |
| 2026-04-24 02:22 | 29.11299 | 71.60920 | 36782 ft | 506 kts | 140° |
| 2026-04-24 02:23 | 29.06040 | 71.66275 | 36786 ft | 506 kts | 140° |
| 2026-04-24 02:23 | 29.00800 | 71.71603 | 36790 ft | 507 kts | 140° |
| 2026-04-24 02:24 | 28.95528 | 71.76957 | 36787 ft | 506 kts | 140° |
| 2026-04-24 02:24 | 28.90250 | 71.82308 | 36790 ft | 506 kts | 140° |
| 2026-04-24 02:25 | 28.85859 | 71.86755 | 36783 ft | 507 kts | 140° |
| 2026-04-24 02:25 | 28.79716 | 71.92967 | 36789 ft | 507 kts | 140° |
| 2026-04-24 02:26 | 28.75323 | 71.97403 | 36787 ft | 507 kts | 140° |
| 2026-04-24 02:26 | 28.70038 | 72.02734 | 36796 ft | 507 kts | 140° |
| 2026-04-24 02:27 | 28.64746 | 72.08063 | 36789 ft | 507 kts | 140° |
| 2026-04-24 02:27 | 28.59449 | 72.13391 | 36787 ft | 507 kts | 140° |
| 2026-04-24 02:28 | 28.54164 | 72.18702 | 36790 ft | 507 kts | 140° |
| 2026-04-24 02:28 | 28.49603 | 72.24769 | 36790 ft | 510 kts | 122° |
| 2026-04-24 02:29 | 28.47995 | 72.28373 | 36792 ft | 510 kts | 111° |
| 2026-04-24 02:29 | 28.46959 | 72.32230 | 36797 ft | 509 kts | 102° |
| 2026-04-24 02:29 | 28.45642 | 72.40139 | 36793 ft | 510 kts | 99° |
| 2026-04-24 02:30 | 28.44504 | 72.48109 | 36798 ft | 510 kts | 99° |
| 2026-04-24 02:30 | 28.43354 | 72.56024 | 36800 ft | 510 kts | 99° |
| 2026-04-24 02:31 | 28.42157 | 72.63983 | 36791 ft | 510 kts | 99° |
| 2026-04-24 02:31 | 28.40944 | 72.71921 | 36785 ft | 509 kts | 99° |
| 2026-04-24 02:32 | 28.39727 | 72.79850 | 36793 ft | 509 kts | 99° |
| 2026-04-24 02:32 | 28.38514 | 72.87725 | 36788 ft | 509 kts | 99° |
| 2026-04-24 02:33 | 28.37292 | 72.95637 | 36793 ft | 509 kts | 99° |
| 2026-04-24 02:33 | 28.36065 | 73.03548 | 36791 ft | 508 kts | 99° |
| 2026-04-24 02:34 | 28.34837 | 73.11441 | 36793 ft | 508 kts | 99° |
| 2026-04-24 02:34 | 28.33609 | 73.19299 | 36794 ft | 508 kts | 99° |
| 2026-04-24 02:35 | 28.32367 | 73.27211 | 36793 ft | 508 kts | 99° |
| 2026-04-24 02:35 | 28.31123 | 73.35110 | 36793 ft | 507 kts | 100° |
| 2026-04-24 02:36 | 28.29877 | 73.42989 | 36792 ft | 507 kts | 100° |
| 2026-04-24 02:36 | 28.28626 | 73.50867 | 36797 ft | 507 kts | 100° |
| 2026-04-24 02:37 | 28.27373 | 73.58733 | 36794 ft | 507 kts | 100° |
| 2026-04-24 02:37 | 28.26122 | 73.66555 | 36800 ft | 507 kts | 100° |
| 2026-04-24 02:38 | 28.24857 | 73.74433 | 36803 ft | 507 kts | 100° |
| 2026-04-24 02:38 | 28.23590 | 73.82291 | 36801 ft | 507 kts | 100° |
| 2026-04-24 02:39 | 28.22318 | 73.90158 | 36803 ft | 507 kts | 100° |
| 2026-04-24 02:39 | 28.21039 | 73.98031 | 36803 ft | 507 kts | 100° |
| 2026-04-24 02:40 | 28.19758 | 74.05892 | 36804 ft | 507 kts | 100° |
| 2026-04-24 02:40 | 28.19169 | 74.13778 | 36820 ft | 505 kts | 86° |
| 2026-04-24 02:41 | 28.19593 | 74.21725 | 36812 ft | 505 kts | 84° |
| 2026-04-24 02:41 | 28.20176 | 74.29669 | 36819 ft | 505 kts | 84° |
| 2026-04-24 02:42 | 28.20761 | 74.37606 | 36816 ft | 505 kts | 84° |
| 2026-04-24 02:42 | 28.21322 | 74.45555 | 36818 ft | 506 kts | 84° |
| 2026-04-24 02:43 | 28.21865 | 74.53466 | 36820 ft | 506 kts | 84° |
| 2026-04-24 02:43 | 28.22405 | 74.61426 | 36824 ft | 506 kts | 84° |
| 2026-04-24 02:44 | 28.22943 | 74.69400 | 36825 ft | 506 kts | 84° |
| 2026-04-24 02:44 | 28.23474 | 74.77350 | 36831 ft | 506 kts | 84° |
| 2026-04-24 02:45 | 28.24001 | 74.85308 | 36826 ft | 506 kts | 84° |
| 2026-04-24 02:45 | 28.24525 | 74.93275 | 36831 ft | 506 kts | 85° |
| 2026-04-24 02:46 | 28.25040 | 75.01184 | 36823 ft | 506 kts | 85° |
| 2026-04-24 02:46 | 28.25553 | 75.09147 | 36830 ft | 506 kts | 85° |
| 2026-04-24 02:47 | 28.26063 | 75.17116 | 36833 ft | 506 kts | 85° |
| 2026-04-24 02:47 | 28.26568 | 75.25090 | 36830 ft | 507 kts | 85° |
| 2026-04-24 02:48 | 28.27069 | 75.33078 | 36826 ft | 507 kts | 85° |
| 2026-04-24 02:48 | 28.27562 | 75.41005 | 36834 ft | 506 kts | 85° |
| 2026-04-24 02:49 | 28.28054 | 75.48984 | 36835 ft | 506 kts | 85° |
| 2026-04-24 02:49 | 28.28541 | 75.56966 | 36835 ft | 506 kts | 85° |
| 2026-04-24 02:50 | 28.29020 | 75.64908 | 36835 ft | 506 kts | 85° |
| 2026-04-24 02:50 | 28.29498 | 75.72895 | 36832 ft | 506 kts | 85° |
| 2026-04-24 02:51 | 28.29968 | 75.80831 | 36836 ft | 506 kts | 85° |
| 2026-04-24 02:51 | 28.30436 | 75.88799 | 36833 ft | 506 kts | 85° |
| 2026-04-24 02:52 | 28.30899 | 75.96785 | 36826 ft | 505 kts | 85° |
| 2026-04-24 02:52 | 28.31357 | 76.04746 | 36827 ft | 505 kts | 85° |
| 2026-04-24 02:53 | 28.31808 | 76.12671 | 36828 ft | 505 kts | 85° |
| 2026-04-24 02:53 | 28.32258 | 76.20654 | 36826 ft | 506 kts | 86° |
| 2026-04-24 02:54 | 28.32703 | 76.28631 | 36829 ft | 507 kts | 86° |
| 2026-04-24 02:54 | 28.33143 | 76.36619 | 36822 ft | 507 kts | 86° |
| 2026-04-24 02:55 | 28.33579 | 76.44619 | 36818 ft | 507 kts | 86° |
| 2026-04-24 02:55 | 28.34008 | 76.52556 | 36823 ft | 507 kts | 86° |
| 2026-04-24 02:56 | 28.34434 | 76.60561 | 36825 ft | 508 kts | 86° |
| 2026-04-24 02:56 | 28.33861 | 76.68532 | 36824 ft | 507 kts | 104° |
| 2026-04-24 02:57 | 28.31651 | 76.76118 | 36829 ft | 507 kts | 111° |
| 2026-04-24 02:57 | 28.29111 | 76.83609 | 36820 ft | 508 kts | 112° |
| 2026-04-24 02:58 | 28.26554 | 76.91030 | 36822 ft | 509 kts | 112° |
| 2026-04-24 02:58 | 28.23998 | 76.98521 | 36823 ft | 509 kts | 112° |
| 2026-04-24 02:59 | 28.21453 | 77.06023 | 36822 ft | 509 kts | 112° |
| 2026-04-24 02:59 | 28.18907 | 77.13525 | 36809 ft | 509 kts | 112° |
| 2026-04-24 03:00 | 28.16372 | 77.20974 | 36813 ft | 509 kts | 112° |
| 2026-04-24 03:00 | 28.13816 | 77.28468 | 36804 ft | 509 kts | 112° |
| 2026-04-24 03:01 | 28.11257 | 77.35955 | 36808 ft | 509 kts | 112° |
| 2026-04-24 03:01 | 28.08691 | 77.43449 | 36793 ft | 509 kts | 112° |
| 2026-04-24 03:02 | 28.06121 | 77.50936 | 36795 ft | 510 kts | 113° |
| 2026-04-24 03:02 | 28.03557 | 77.58392 | 36796 ft | 511 kts | 113° |
| 2026-04-24 03:03 | 28.00974 | 77.65885 | 36787 ft | 511 kts | 113° |
| 2026-04-24 03:03 | 27.98388 | 77.73375 | 36786 ft | 511 kts | 113° |
| 2026-04-24 03:04 | 27.95797 | 77.80864 | 36786 ft | 511 kts | 113° |
| 2026-04-24 03:04 | 27.93194 | 77.88371 | 36791 ft | 511 kts | 113° |
| 2026-04-24 03:05 | 27.90606 | 77.95819 | 36780 ft | 511 kts | 113° |
| 2026-04-24 03:05 | 27.87998 | 78.03308 | 36795 ft | 511 kts | 113° |
| 2026-04-24 03:06 | 27.85391 | 78.10782 | 36799 ft | 511 kts | 113° |
| 2026-04-24 03:06 | 27.82780 | 78.18251 | 36799 ft | 511 kts | 113° |
| 2026-04-24 03:07 | 27.80074 | 78.25671 | 36800 ft | 510 kts | 115° |
| 2026-04-24 03:07 | 27.77270 | 78.33028 | 36799 ft | 510 kts | 115° |
| 2026-04-24 03:08 | 27.73087 | 78.44051 | 36784 ft | 511 kts | 114° |
| 2026-04-24 03:09 | 27.70309 | 78.51418 | 36781 ft | 511 kts | 114° |
| 2026-04-24 03:09 | 27.67523 | 78.58803 | 36800 ft | 510 kts | 114° |
| 2026-04-24 03:10 | 27.64733 | 78.66181 | 36798 ft | 510 kts | 115° |
| 2026-04-24 03:10 | 27.62416 | 78.72293 | 36778 ft | 510 kts | 114° |
| 2026-04-24 03:11 | 27.59624 | 78.79650 | 36775 ft | 510 kts | 115° |
| 2026-04-24 03:11 | 27.56374 | 78.88194 | 36793 ft | 510 kts | 115° |
| 2026-04-24 03:12 | 27.54042 | 78.94311 | 36796 ft | 510 kts | 115° |
| 2026-04-24 03:12 | 27.51238 | 79.01655 | 36796 ft | 510 kts | 115° |
| 2026-04-24 03:13 | 27.48428 | 79.09003 | 36795 ft | 510 kts | 115° |
| 2026-04-24 03:13 | 27.45612 | 79.16352 | 36799 ft | 510 kts | 115° |
| 2026-04-24 03:14 | 27.42800 | 79.23674 | 36798 ft | 510 kts | 115° |
| 2026-04-24 03:14 | 27.39996 | 79.30965 | 36801 ft | 510 kts | 115° |
| 2026-04-24 03:15 | 27.37175 | 79.38286 | 36802 ft | 510 kts | 115° |
| 2026-04-24 03:15 | 27.34351 | 79.45601 | 36804 ft | 509 kts | 115° |
| 2026-04-24 03:16 | 27.31501 | 79.52914 | 36802 ft | 509 kts | 116° |
| 2026-04-24 03:16 | 27.28602 | 79.60117 | 36802 ft | 509 kts | 116° |
| 2026-04-24 03:17 | 27.25665 | 79.67377 | 36802 ft | 509 kts | 116° |
| 2026-04-24 03:17 | 27.22739 | 79.74630 | 36801 ft | 509 kts | 116° |
| 2026-04-24 03:18 | 27.19813 | 79.81890 | 36804 ft | 509 kts | 116° |
| 2026-04-24 03:18 | 27.16890 | 79.89134 | 36804 ft | 509 kts | 116° |
| 2026-04-24 03:19 | 27.13983 | 79.96324 | 36803 ft | 509 kts | 116° |
| 2026-04-24 03:19 | 27.11049 | 80.03566 | 36805 ft | 509 kts | 116° |
| 2026-04-24 03:20 | 27.08106 | 80.10818 | 36804 ft | 509 kts | 116° |
| 2026-04-24 03:20 | 27.05163 | 80.18057 | 36801 ft | 509 kts | 116° |
| 2026-04-24 03:21 | 27.02232 | 80.25253 | 36807 ft | 510 kts | 116° |
| 2026-04-24 03:21 | 26.99282 | 80.32483 | 36807 ft | 510 kts | 116° |
| 2026-04-24 03:22 | 26.96323 | 80.39724 | 36808 ft | 510 kts | 116° |
| 2026-04-24 03:22 | 26.93363 | 80.46953 | 36807 ft | 510 kts | 116° |
| 2026-04-24 03:23 | 26.90393 | 80.54193 | 36803 ft | 510 kts | 117° |
| 2026-04-24 03:23 | 26.87421 | 80.61425 | 36810 ft | 510 kts | 117° |
| 2026-04-24 03:24 | 26.84466 | 80.68606 | 36823 ft | 511 kts | 117° |
| 2026-04-24 03:24 | 26.81464 | 80.75885 | 36826 ft | 511 kts | 117° |
| 2026-04-24 03:25 | 26.78496 | 80.83069 | 36829 ft | 511 kts | 117° |
| 2026-04-24 03:25 | 26.75263 | 80.90143 | 36830 ft | 508 kts | 126° |
| 2026-04-24 03:26 | 26.71244 | 80.96626 | 36811 ft | 507 kts | 128° |
| 2026-04-24 03:26 | 26.67073 | 81.03016 | 36809 ft | 507 kts | 129° |
| 2026-04-24 03:27 | 26.62921 | 81.09332 | 36811 ft | 507 kts | 129° |
| 2026-04-24 03:27 | 26.58737 | 81.15719 | 36805 ft | 508 kts | 129° |
| 2026-04-24 03:28 | 26.54594 | 81.22052 | 36810 ft | 507 kts | 129° |
| 2026-04-24 03:28 | 26.50430 | 81.28413 | 36807 ft | 507 kts | 129° |
| 2026-04-24 03:29 | 26.46260 | 81.34775 | 36807 ft | 507 kts | 129° |
| 2026-04-24 03:29 | 26.42082 | 81.41137 | 36807 ft | 507 kts | 129° |
| 2026-04-24 03:30 | 26.37932 | 81.47448 | 36813 ft | 507 kts | 129° |
| 2026-04-24 03:30 | 26.33753 | 81.53795 | 36812 ft | 508 kts | 129° |
| 2026-04-24 03:31 | 26.29565 | 81.60146 | 36809 ft | 507 kts | 129° |
| 2026-04-24 03:31 | 26.25374 | 81.66494 | 36801 ft | 507 kts | 129° |
| 2026-04-24 03:32 | 26.21185 | 81.72828 | 36807 ft | 508 kts | 129° |
| 2026-04-24 03:32 | 26.17013 | 81.79128 | 36807 ft | 508 kts | 129° |
| 2026-04-24 03:33 | 26.12812 | 81.85465 | 36802 ft | 508 kts | 129° |
| 2026-04-24 03:33 | 26.08614 | 81.91788 | 36804 ft | 508 kts | 129° |
| 2026-04-24 03:34 | 26.04404 | 81.98120 | 36802 ft | 508 kts | 129° |
| 2026-04-24 03:34 | 26.00199 | 82.04437 | 36801 ft | 509 kts | 130° |
| 2026-04-24 03:35 | 25.95981 | 82.10764 | 36797 ft | 509 kts | 130° |
| 2026-04-24 03:35 | 25.91790 | 82.17042 | 36799 ft | 509 kts | 130° |
| 2026-04-24 03:36 | 25.87568 | 82.23358 | 36800 ft | 509 kts | 130° |
| 2026-04-24 03:36 | 25.83336 | 82.29680 | 36799 ft | 509 kts | 130° |
| 2026-04-24 03:37 | 25.79106 | 82.35990 | 36799 ft | 509 kts | 130° |
| 2026-04-24 03:37 | 25.74882 | 82.42285 | 36785 ft | 509 kts | 131° |
| 2026-04-24 03:38 | 25.70654 | 82.48573 | 36801 ft | 512 kts | 131° |
| 2026-04-24 03:38 | 25.66386 | 82.54914 | 36801 ft | 512 kts | 131° |
| 2026-04-24 03:39 | 25.62117 | 82.61249 | 36798 ft | 512 kts | 131° |
| 2026-04-24 03:39 | 25.57851 | 82.67572 | 36801 ft | 512 kts | 131° |
| 2026-04-24 03:40 | 25.53569 | 82.73907 | 36800 ft | 512 kts | 131° |
| 2026-04-24 03:40 | 25.49317 | 82.80192 | 36800 ft | 513 kts | 131° |
| 2026-04-24 03:41 | 25.45029 | 82.86522 | 36806 ft | 514 kts | 131° |
| 2026-04-24 03:41 | 25.40529 | 82.92627 | 36804 ft | 513 kts | 136° |
| 2026-04-24 03:42 | 25.35828 | 82.98570 | 36799 ft | 513 kts | 136° |
| 2026-04-24 03:42 | 25.31146 | 83.04536 | 36799 ft | 513 kts | 136° |
| 2026-04-24 03:43 | 25.26488 | 83.10553 | 36803 ft | 514 kts | 135° |
| 2026-04-24 03:43 | 25.21856 | 83.16562 | 36798 ft | 514 kts | 135° |
| 2026-04-24 03:44 | 25.17238 | 83.22547 | 36802 ft | 515 kts | 135° |
| 2026-04-24 03:44 | 25.12582 | 83.28570 | 36801 ft | 515 kts | 135° |
| 2026-04-24 03:45 | 25.07930 | 83.34578 | 36807 ft | 515 kts | 136° |
| 2026-04-24 03:45 | 25.03274 | 83.40583 | 36808 ft | 515 kts | 136° |
| 2026-04-24 03:46 | 24.98644 | 83.46546 | 36804 ft | 515 kts | 136° |
| 2026-04-24 03:46 | 24.93984 | 83.52542 | 36807 ft | 515 kts | 136° |
| 2026-04-24 03:47 | 24.89316 | 83.58539 | 36808 ft | 516 kts | 136° |
| 2026-04-24 03:47 | 24.84628 | 83.64554 | 36809 ft | 518 kts | 136° |
| 2026-04-24 03:48 | 24.79949 | 83.70549 | 36810 ft | 519 kts | 136° |
| 2026-04-24 03:48 | 24.75248 | 83.76568 | 36814 ft | 519 kts | 136° |
| 2026-04-24 03:49 | 24.70547 | 83.82578 | 36815 ft | 518 kts | 136° |
| 2026-04-24 03:49 | 24.65827 | 83.88604 | 36814 ft | 519 kts | 137° |
| 2026-04-24 03:50 | 24.61108 | 83.94621 | 36815 ft | 519 kts | 137° |
| 2026-04-24 03:50 | 24.56382 | 84.00639 | 36820 ft | 521 kts | 137° |
| 2026-04-24 03:51 | 24.51668 | 84.06633 | 36819 ft | 522 kts | 137° |
| 2026-04-24 03:51 | 24.46905 | 84.12685 | 36817 ft | 522 kts | 137° |
| 2026-04-24 03:52 | 24.42148 | 84.18721 | 36818 ft | 522 kts | 137° |
| 2026-04-24 03:52 | 24.37394 | 84.24746 | 36836 ft | 522 kts | 137° |
| 2026-04-24 03:53 | 24.32634 | 84.30770 | 36830 ft | 522 kts | 137° |
| 2026-04-24 03:53 | 24.27889 | 84.36767 | 36821 ft | 523 kts | 138° |
| 2026-04-24 03:54 | 24.23104 | 84.42810 | 36848 ft | 524 kts | 138° |
| 2026-04-24 03:54 | 24.18327 | 84.48834 | 36849 ft | 524 kts | 138° |
| 2026-04-24 03:55 | 24.13533 | 84.54828 | 36867 ft | 523 kts | 139° |
| 2026-04-24 03:55 | 24.08723 | 84.60823 | 36866 ft | 524 kts | 139° |
| 2026-04-24 03:56 | 24.04723 | 84.65810 | 36865 ft | 524 kts | 139° |
| 2026-04-24 03:56 | 23.99131 | 84.72777 | 36892 ft | 525 kts | 139° |
| 2026-04-24 03:57 | 23.94308 | 84.78781 | 36889 ft | 526 kts | 139° |
| 2026-04-24 03:57 | 23.90277 | 84.83793 | 36912 ft | 526 kts | 139° |
| 2026-04-24 03:58 | 23.85437 | 84.89807 | 36909 ft | 526 kts | 139° |
| 2026-04-24 03:58 | 23.80600 | 84.95808 | 36910 ft | 526 kts | 139° |
| 2026-04-24 03:59 | 23.75762 | 85.01802 | 36931 ft | 526 kts | 139° |
| 2026-04-24 03:59 | 23.70917 | 85.07798 | 36932 ft | 527 kts | 140° |
| 2026-04-24 04:00 | 23.66058 | 85.13802 | 36940 ft | 528 kts | 140° |
| 2026-04-24 04:00 | 23.61231 | 85.19762 | 36960 ft | 527 kts | 140° |
| 2026-04-24 04:01 | 23.56374 | 85.25749 | 36962 ft | 527 kts | 140° |
| 2026-04-24 04:01 | 23.51510 | 85.31736 | 36987 ft | 526 kts | 140° |
| 2026-04-24 04:02 | 23.46654 | 85.37712 | 36994 ft | 526 kts | 140° |
| 2026-04-24 04:02 | 23.41795 | 85.43682 | 36985 ft | 526 kts | 140° |
| 2026-04-24 04:03 | 23.36962 | 85.49611 | 36983 ft | 527 kts | 140° |
| 2026-04-24 04:03 | 23.32090 | 85.55581 | 36979 ft | 528 kts | 140° |
| 2026-04-24 04:04 | 23.27201 | 85.61566 | 36961 ft | 528 kts | 140° |
| 2026-04-24 04:04 | 23.22316 | 85.67540 | 36950 ft | 528 kts | 140° |
| 2026-04-24 04:05 | 23.17461 | 85.73469 | 36935 ft | 528 kts | 140° |
| 2026-04-24 04:05 | 23.12567 | 85.79439 | 36931 ft | 528 kts | 140° |
| 2026-04-24 04:06 | 23.07691 | 85.85378 | 36931 ft | 528 kts | 140° |
| 2026-04-24 04:06 | 23.02804 | 85.91325 | 36906 ft | 527 kts | 140° |
| 2026-04-24 04:07 | 22.97912 | 85.97272 | 36898 ft | 526 kts | 140° |
| 2026-04-24 04:07 | 22.93061 | 86.03160 | 36873 ft | 526 kts | 140° |
| 2026-04-24 04:08 | 22.88185 | 86.09073 | 36859 ft | 526 kts | 140° |
| 2026-04-24 04:08 | 22.83291 | 86.15000 | 36853 ft | 526 kts | 140° |
| 2026-04-24 04:09 | 22.78870 | 86.21377 | 36860 ft | 536 kts | 131° |
| 2026-04-24 04:09 | 22.74707 | 86.28110 | 36905 ft | 538 kts | 130° |
| 2026-04-24 04:10 | 22.70592 | 86.34881 | 36899 ft | 537 kts | 130° |
| 2026-04-24 04:10 | 22.66476 | 86.41629 | 36898 ft | 536 kts | 131° |
| 2026-04-24 04:11 | 22.60281 | 86.51723 | 36887 ft | 536 kts | 131° |
| 2026-04-24 04:11 | 22.56171 | 86.58401 | 36883 ft | 536 kts | 130° |
| 2026-04-24 04:12 | 22.52021 | 86.65135 | 36878 ft | 538 kts | 130° |
| 2026-04-24 04:12 | 22.47868 | 86.71869 | 36879 ft | 538 kts | 131° |
| 2026-04-24 04:13 | 22.43710 | 86.78604 | 36878 ft | 538 kts | 131° |
| 2026-04-24 04:13 | 22.39549 | 86.85335 | 36866 ft | 538 kts | 130° |
| 2026-04-24 04:14 | 22.35388 | 86.92056 | 36867 ft | 538 kts | 130° |
| 2026-04-24 04:14 | 22.31251 | 86.98730 | 36856 ft | 538 kts | 130° |
| 2026-04-24 04:15 | 22.27069 | 87.05467 | 36862 ft | 539 kts | 130° |
| 2026-04-24 04:15 | 22.22911 | 87.12159 | 36854 ft | 539 kts | 130° |
| 2026-04-24 04:16 | 22.18727 | 87.18885 | 36852 ft | 539 kts | 130° |
| 2026-04-24 04:16 | 22.14606 | 87.25664 | 36854 ft | 543 kts | 126° |
| 2026-04-24 04:17 | 22.10908 | 87.32797 | 36849 ft | 545 kts | 125° |
| 2026-04-24 04:17 | 22.07306 | 87.39953 | 36850 ft | 546 kts | 124° |
| 2026-04-24 04:18 | 22.03690 | 87.47156 | 36851 ft | 547 kts | 124° |
| 2026-04-24 04:18 | 22.00058 | 87.54364 | 36855 ft | 546 kts | 124° |
| 2026-04-24 04:19 | 21.96420 | 87.61560 | 36851 ft | 546 kts | 124° |
| 2026-04-24 04:19 | 21.92781 | 87.68744 | 36853 ft | 546 kts | 124° |
| 2026-04-24 04:20 | 21.89131 | 87.75939 | 36849 ft | 547 kts | 124° |
| 2026-04-24 04:20 | 21.85494 | 87.83100 | 36848 ft | 548 kts | 124° |
| 2026-04-24 04:21 | 21.81840 | 87.90287 | 36848 ft | 548 kts | 124° |
| 2026-04-24 04:21 | 21.78178 | 87.97479 | 36851 ft | 547 kts | 124° |
| 2026-04-24 04:22 | 21.74518 | 88.04658 | 36854 ft | 546 kts | 124° |
| 2026-04-24 04:22 | 21.70858 | 88.11826 | 36853 ft | 546 kts | 124° |
| 2026-04-24 04:23 | 21.67193 | 88.18991 | 36856 ft | 547 kts | 124° |
| 2026-04-24 04:23 | 21.63546 | 88.26115 | 36859 ft | 547 kts | 124° |
| 2026-04-24 04:24 | 21.59873 | 88.33280 | 36859 ft | 547 kts | 124° |
| 2026-04-24 04:24 | 21.56197 | 88.40440 | 36859 ft | 547 kts | 125° |
| 2026-04-24 04:25 | 21.52520 | 88.47594 | 36864 ft | 547 kts | 124° |
| 2026-04-24 04:25 | 21.48826 | 88.54768 | 36864 ft | 548 kts | 124° |
| 2026-04-24 04:26 | 21.45158 | 88.61884 | 36859 ft | 548 kts | 124° |
| 2026-04-24 04:26 | 21.41471 | 88.69031 | 36864 ft | 546 kts | 124° |
| 2026-04-24 04:27 | 21.37701 | 88.76103 | 36868 ft | 541 kts | 130° |
| 2026-04-24 04:27 | 21.32760 | 88.82009 | 36865 ft | 526 kts | 144° |
| 2026-04-24 04:28 | 21.27347 | 88.87205 | 36868 ft | 525 kts | 146° |
| 2026-04-24 04:28 | 21.21810 | 88.92344 | 36870 ft | 526 kts | 146° |
| 2026-04-24 04:29 | 21.16275 | 88.97493 | 36869 ft | 526 kts | 146° |
| 2026-04-24 04:29 | 21.10751 | 89.02659 | 36870 ft | 526 kts | 145° |
| 2026-04-24 04:30 | 21.05241 | 89.07821 | 36868 ft | 526 kts | 145° |
| 2026-04-24 04:30 | 20.99760 | 89.12951 | 36874 ft | 526 kts | 145° |
| 2026-04-24 04:31 | 20.94255 | 89.18098 | 36874 ft | 526 kts | 146° |
| 2026-04-24 04:31 | 20.89287 | 89.23962 | 36871 ft | 536 kts | 134° |
| 2026-04-24 04:32 | 20.84751 | 89.30336 | 36875 ft | 539 kts | 132° |
| 2026-04-24 04:32 | 20.80281 | 89.36781 | 36873 ft | 539 kts | 131° |
| 2026-04-24 04:33 | 20.75838 | 89.43167 | 36880 ft | 537 kts | 132° |
| 2026-04-24 04:33 | 20.71359 | 89.49565 | 36882 ft | 536 kts | 132° |
| 2026-04-24 04:34 | 20.66871 | 89.55954 | 36879 ft | 536 kts | 132° |
| 2026-04-24 04:34 | 20.62415 | 89.62289 | 36876 ft | 536 kts | 132° |
| 2026-04-24 04:35 | 20.57933 | 89.68655 | 36883 ft | 536 kts | 132° |
| 2026-04-24 04:35 | 20.53442 | 89.75028 | 36884 ft | 536 kts | 132° |
| 2026-04-24 04:36 | 20.48953 | 89.81392 | 36885 ft | 536 kts | 132° |
| 2026-04-24 04:36 | 20.44469 | 89.87741 | 36886 ft | 535 kts | 132° |
| 2026-04-24 04:37 | 20.39989 | 89.94079 | 36887 ft | 534 kts | 132° |
| 2026-04-24 04:37 | 20.35502 | 90.00419 | 36882 ft | 534 kts | 131° |
| 2026-04-24 04:38 | 20.31017 | 90.06747 | 36887 ft | 535 kts | 132° |
| 2026-04-24 04:38 | 20.26553 | 90.13041 | 36886 ft | 535 kts | 132° |
| 2026-04-24 04:39 | 20.22064 | 90.19364 | 36883 ft | 535 kts | 132° |
| 2026-04-24 04:39 | 20.17563 | 90.25696 | 36885 ft | 535 kts | 132° |
| 2026-04-24 04:40 | 20.13066 | 90.32015 | 36871 ft | 535 kts | 131° |
| 2026-04-24 04:40 | 20.08574 | 90.38322 | 36877 ft | 534 kts | 131° |
| 2026-04-24 04:41 | 20.04088 | 90.44612 | 36886 ft | 533 kts | 131° |
| 2026-04-24 04:41 | 19.99623 | 90.50867 | 36886 ft | 533 kts | 131° |
| 2026-04-24 04:42 | 19.95129 | 90.57155 | 36887 ft | 533 kts | 131° |
| 2026-04-24 04:42 | 19.91390 | 90.62382 | 36887 ft | 533 kts | 131° |
| 2026-04-24 04:43 | 19.86891 | 90.68664 | 36884 ft | 533 kts | 131° |
| 2026-04-24 04:43 | 19.82399 | 90.74931 | 36883 ft | 533 kts | 131° |
| 2026-04-24 04:44 | 19.77892 | 90.81212 | 36883 ft | 533 kts | 131° |
| 2026-04-24 04:44 | 19.73427 | 90.87430 | 36887 ft | 532 kts | 131° |
| 2026-04-24 04:45 | 19.68933 | 90.93680 | 36886 ft | 531 kts | 131° |
| 2026-04-24 04:45 | 19.64448 | 90.99910 | 36887 ft | 531 kts | 131° |
| 2026-04-24 04:46 | 19.59951 | 91.06151 | 36886 ft | 531 kts | 131° |
| 2026-04-24 04:46 | 19.55489 | 91.12338 | 36887 ft | 531 kts | 131° |
| 2026-04-24 04:47 | 19.50987 | 91.18573 | 36887 ft | 532 kts | 131° |
| 2026-04-24 04:47 | 19.46483 | 91.24804 | 36882 ft | 532 kts | 131° |
| 2026-04-24 04:48 | 19.42008 | 91.30989 | 36882 ft | 531 kts | 131° |
| 2026-04-24 04:48 | 19.37502 | 91.37211 | 36884 ft | 531 kts | 131° |
| 2026-04-24 04:49 | 19.33002 | 91.43418 | 36886 ft | 531 kts | 131° |
| 2026-04-24 04:49 | 19.28520 | 91.49594 | 36883 ft | 531 kts | 131° |
| 2026-04-24 04:50 | 19.24021 | 91.55786 | 36881 ft | 531 kts | 131° |
| 2026-04-24 04:50 | 19.19512 | 91.61987 | 36880 ft | 531 kts | 131° |
| 2026-04-24 04:51 | 19.15001 | 91.68184 | 36878 ft | 531 kts | 131° |
| 2026-04-24 04:51 | 19.10518 | 91.74337 | 36865 ft | 530 kts | 131° |
| 2026-04-24 04:52 | 19.06013 | 91.80513 | 36869 ft | 529 kts | 131° |
| 2026-04-24 04:52 | 19.01514 | 91.86676 | 36867 ft | 529 kts | 131° |
| 2026-04-24 04:53 | 18.97009 | 91.92839 | 36884 ft | 529 kts | 131° |
| 2026-04-24 04:53 | 18.92535 | 91.98954 | 36879 ft | 529 kts | 131° |
| 2026-04-24 04:54 | 18.88011 | 92.05085 | 36881 ft | 529 kts | 132° |
| 2026-04-24 04:54 | 18.83439 | 92.11189 | 36884 ft | 529 kts | 132° |
| 2026-04-24 04:55 | 18.78868 | 92.17287 | 36880 ft | 529 kts | 132° |
| 2026-04-24 04:55 | 18.74336 | 92.23342 | 36877 ft | 529 kts | 132° |
| 2026-04-24 04:56 | 18.69765 | 92.29449 | 36868 ft | 529 kts | 132° |
| 2026-04-24 04:56 | 18.65201 | 92.35543 | 36883 ft | 529 kts | 132° |
| 2026-04-24 04:57 | 18.60635 | 92.41632 | 36881 ft | 529 kts | 132° |
| 2026-04-24 04:57 | 18.56057 | 92.47732 | 36884 ft | 529 kts | 132° |
| 2026-04-24 04:58 | 18.51509 | 92.53785 | 36883 ft | 529 kts | 132° |
| 2026-04-24 04:58 | 18.46937 | 92.59865 | 36884 ft | 529 kts | 132° |
| 2026-04-24 04:59 | 18.42349 | 92.65960 | 36880 ft | 529 kts | 132° |
| 2026-04-24 04:59 | 18.37771 | 92.72036 | 36878 ft | 528 kts | 132° |
| 2026-04-24 05:00 | 18.33229 | 92.78059 | 36878 ft | 528 kts | 132° |
| 2026-04-24 05:00 | 18.28652 | 92.84122 | 36881 ft | 528 kts | 132° |
| 2026-04-24 05:01 | 18.24076 | 92.90178 | 36880 ft | 528 kts | 132° |
| 2026-04-24 05:01 | 18.19496 | 92.96234 | 36877 ft | 528 kts | 132° |
| 2026-04-24 05:02 | 18.14939 | 93.02254 | 36879 ft | 528 kts | 132° |
| 2026-04-24 05:02 | 18.10353 | 93.08306 | 36880 ft | 529 kts | 132° |
| 2026-04-24 05:03 | 18.05767 | 93.14351 | 36869 ft | 529 kts | 131° |
| 2026-04-24 05:03 | 18.01179 | 93.20396 | 36879 ft | 528 kts | 131° |
| 2026-04-24 05:04 | 17.96587 | 93.26439 | 36877 ft | 528 kts | 131° |
| 2026-04-24 05:04 | 17.92038 | 93.32421 | 36878 ft | 528 kts | 131° |
| 2026-04-24 05:05 | 17.87446 | 93.38453 | 36876 ft | 528 kts | 132° |
| 2026-04-24 05:05 | 17.82850 | 93.44485 | 36874 ft | 528 kts | 132° |
| 2026-04-24 05:06 | 17.78265 | 93.50496 | 36876 ft | 528 kts | 132° |
| 2026-04-24 05:06 | 17.73703 | 93.56473 | 36871 ft | 528 kts | 132° |
| 2026-04-24 05:07 | 17.69108 | 93.62487 | 36866 ft | 527 kts | 131° |
| 2026-04-24 05:07 | 17.64526 | 93.68480 | 36873 ft | 526 kts | 131° |
| 2026-04-24 05:08 | 17.59942 | 93.74468 | 36870 ft | 526 kts | 131° |
| 2026-04-24 05:08 | 17.55380 | 93.80423 | 36875 ft | 526 kts | 131° |
| 2026-04-24 05:09 | 17.50789 | 93.86409 | 36867 ft | 526 kts | 131° |
| 2026-04-24 05:09 | 17.46213 | 93.92372 | 36867 ft | 527 kts | 131° |
| 2026-04-24 05:10 | 17.41618 | 93.98353 | 36867 ft | 527 kts | 131° |
| 2026-04-24 05:10 | 17.37017 | 94.04339 | 36867 ft | 527 kts | 131° |
| 2026-04-24 05:11 | 17.32424 | 94.10307 | 36863 ft | 525 kts | 131° |
| 2026-04-24 05:11 | 17.27842 | 94.16256 | 36868 ft | 524 kts | 131° |
| 2026-04-24 05:12 | 17.23284 | 94.22168 | 36863 ft | 524 kts | 131° |
| 2026-04-24 05:12 | 17.18696 | 94.28115 | 36862 ft | 525 kts | 131° |
| 2026-04-24 05:13 | 17.11814 | 94.37024 | 36864 ft | 525 kts | 131° |
| 2026-04-24 05:14 | 17.07220 | 94.42966 | 36858 ft | 525 kts | 131° |
| 2026-04-24 05:14 | 17.02658 | 94.48860 | 36857 ft | 524 kts | 131° |
| 2026-04-24 05:15 | 16.98037 | 94.54827 | 36859 ft | 524 kts | 131° |
| 2026-04-24 05:15 | 16.93480 | 94.60704 | 36853 ft | 523 kts | 131° |
| 2026-04-24 05:16 | 16.88904 | 94.66602 | 36856 ft | 522 kts | 131° |
| 2026-04-24 05:16 | 16.84312 | 94.72515 | 36853 ft | 522 kts | 131° |
| 2026-04-24 05:17 | 16.80104 | 94.78702 | 36851 ft | 525 kts | 120° |
| 2026-04-24 05:17 | 16.76699 | 94.85407 | 36845 ft | 526 kts | 118° |
| 2026-04-24 05:18 | 16.73399 | 94.92241 | 36843 ft | 526 kts | 118° |
| 2026-04-24 05:18 | 16.70103 | 94.99082 | 36842 ft | 526 kts | 118° |
| 2026-04-24 05:19 | 16.66814 | 95.05861 | 36840 ft | 526 kts | 118° |
| 2026-04-24 05:19 | 16.63498 | 95.12666 | 36835 ft | 526 kts | 118° |
| 2026-04-24 05:20 | 16.60184 | 95.19455 | 36840 ft | 524 kts | 118° |
| 2026-04-24 05:20 | 16.56871 | 95.26237 | 36840 ft | 523 kts | 118° |
| 2026-04-24 05:21 | 16.53567 | 95.32996 | 36842 ft | 523 kts | 118° |
| 2026-04-24 05:21 | 16.50276 | 95.39722 | 36843 ft | 523 kts | 118° |
| 2026-04-24 05:22 | 16.46976 | 95.46458 | 36842 ft | 522 kts | 118° |
| 2026-04-24 05:22 | 16.43663 | 95.53213 | 36842 ft | 522 kts | 118° |
| 2026-04-24 05:23 | 16.40352 | 95.59960 | 36843 ft | 522 kts | 118° |
| 2026-04-24 05:23 | 16.37059 | 95.66663 | 36845 ft | 522 kts | 118° |
| 2026-04-24 05:24 | 16.33747 | 95.73396 | 36845 ft | 522 kts | 118° |
| 2026-04-24 05:24 | 16.30433 | 95.80127 | 36849 ft | 522 kts | 118° |
| 2026-04-24 05:25 | 16.27121 | 95.86849 | 36845 ft | 522 kts | 118° |
| 2026-04-24 05:25 | 16.23831 | 95.93519 | 36849 ft | 519 kts | 118° |
| 2026-04-24 05:26 | 16.20540 | 96.00186 | 36852 ft | 517 kts | 118° |
| 2026-04-24 05:26 | 16.17252 | 96.06838 | 36851 ft | 517 kts | 118° |
| 2026-04-24 05:27 | 16.13958 | 96.13498 | 36856 ft | 517 kts | 118° |
| 2026-04-24 05:27 | 16.10666 | 96.20146 | 36856 ft | 516 kts | 118° |
| 2026-04-24 05:28 | 16.07379 | 96.26778 | 36856 ft | 516 kts | 118° |
| 2026-04-24 05:28 | 16.04107 | 96.33374 | 36856 ft | 516 kts | 118° |
| 2026-04-24 05:29 | 16.00803 | 96.40027 | 36859 ft | 516 kts | 118° |
| 2026-04-24 05:29 | 15.97507 | 96.46658 | 36862 ft | 516 kts | 118° |
| 2026-04-24 05:30 | 15.94205 | 96.53296 | 36862 ft | 516 kts | 118° |
| 2026-04-24 05:30 | 15.91464 | 96.58801 | 36862 ft | 516 kts | 118° |
| 2026-04-24 05:31 | 15.88162 | 96.65425 | 36855 ft | 516 kts | 118° |
| 2026-04-24 05:31 | 15.84883 | 96.71998 | 36857 ft | 513 kts | 118° |
| 2026-04-24 05:32 | 15.81601 | 96.78572 | 36859 ft | 513 kts | 118° |
| 2026-04-24 05:32 | 15.78313 | 96.85150 | 36860 ft | 513 kts | 118° |
| 2026-04-24 05:33 | 15.75020 | 96.91733 | 36859 ft | 513 kts | 118° |
| 2026-04-24 05:33 | 15.71727 | 96.98310 | 36859 ft | 513 kts | 118° |
| 2026-04-24 05:34 | 15.66784 | 97.08172 | 36857 ft | 513 kts | 118° |
| 2026-04-24 05:34 | 15.63502 | 97.14713 | 36859 ft | 513 kts | 118° |
| 2026-04-24 05:35 | 15.60197 | 97.21291 | 36856 ft | 513 kts | 118° |
| 2026-04-24 05:35 | 15.56896 | 97.27857 | 36857 ft | 513 kts | 118° |
| 2026-04-24 05:36 | 15.53587 | 97.34433 | 36856 ft | 513 kts | 118° |
| 2026-04-24 05:36 | 15.50298 | 97.40964 | 36855 ft | 512 kts | 118° |
| 2026-04-24 05:37 | 15.47000 | 97.47507 | 36857 ft | 510 kts | 118° |
| 2026-04-24 05:37 | 15.43729 | 97.53988 | 36857 ft | 510 kts | 118° |
| 2026-04-24 05:38 | 15.40435 | 97.60509 | 36856 ft | 510 kts | 118° |
| 2026-04-24 05:38 | 15.37148 | 97.67012 | 36859 ft | 510 kts | 118° |
| 2026-04-24 05:39 | 15.33842 | 97.73547 | 36859 ft | 510 kts | 118° |
| 2026-04-24 05:39 | 15.30538 | 97.80071 | 36859 ft | 510 kts | 118° |
| 2026-04-24 05:40 | 15.27237 | 97.86584 | 36856 ft | 510 kts | 118° |
| 2026-04-24 05:40 | 15.23934 | 97.93095 | 36859 ft | 510 kts | 118° |
| 2026-04-24 05:41 | 15.20633 | 97.99598 | 36853 ft | 510 kts | 118° |
| 2026-04-24 05:41 | 15.17343 | 98.06071 | 36856 ft | 510 kts | 118° |
| 2026-04-24 05:42 | 15.14032 | 98.12582 | 36857 ft | 510 kts | 118° |
| 2026-04-24 05:42 | 15.10739 | 98.19051 | 36855 ft | 510 kts | 118° |
| 2026-04-24 05:43 | 15.07446 | 98.25565 | 36857 ft | 511 kts | 118° |
| 2026-04-24 05:43 | 15.04210 | 98.32096 | 36851 ft | 510 kts | 118° |
| 2026-04-24 05:44 | 15.00967 | 98.38645 | 36854 ft | 510 kts | 118° |
| 2026-04-24 05:44 | 14.97727 | 98.45163 | 36854 ft | 509 kts | 118° |
| 2026-04-24 05:45 | 14.94478 | 98.51679 | 36859 ft | 510 kts | 118° |
| 2026-04-24 05:45 | 14.91243 | 98.58163 | 36859 ft | 510 kts | 118° |
| 2026-04-24 05:46 | 14.87986 | 98.64682 | 36856 ft | 510 kts | 118° |
| 2026-04-24 05:46 | 14.84725 | 98.71206 | 36858 ft | 510 kts | 118° |
| 2026-04-24 05:47 | 14.81481 | 98.77688 | 36857 ft | 509 kts | 118° |
| 2026-04-24 05:47 | 14.78232 | 98.84176 | 36856 ft | 509 kts | 118° |
| 2026-04-24 05:48 | 14.74975 | 98.90676 | 36845 ft | 508 kts | 118° |
| 2026-04-24 05:48 | 14.71732 | 98.97142 | 36848 ft | 507 kts | 118° |
| 2026-04-24 05:49 | 14.68485 | 99.03612 | 36846 ft | 507 kts | 118° |
| 2026-04-24 05:49 | 14.65253 | 99.10046 | 36678 ft | 497 kts | 118° |
| 2026-04-24 05:50 | 14.63679 | 99.13177 | 35941 ft | 498 kts | 118° |
| 2026-04-24 05:50 | 14.62077 | 99.16360 | 35145 ft | 502 kts | 117° |
| 2026-04-24 05:50 | 14.60464 | 99.19566 | 34380 ft | 504 kts | 117° |
| 2026-04-24 05:50 | 14.58836 | 99.22799 | 33522 ft | 508 kts | 117° |
| 2026-04-24 05:51 | 14.57203 | 99.26043 | 32646 ft | 511 kts | 117° |
| 2026-04-24 05:51 | 14.55553 | 99.29318 | 31756 ft | 513 kts | 117° |
| 2026-04-24 05:51 | 14.53900 | 99.32599 | 30873 ft | 516 kts | 117° |
| 2026-04-24 05:51 | 14.52242 | 99.35888 | 29957 ft | 519 kts | 117° |
| 2026-04-24 05:52 | 14.50566 | 99.39211 | 29036 ft | 519 kts | 117° |
| 2026-04-24 05:52 | 14.48923 | 99.42466 | 28332 ft | 515 kts | 117° |
| 2026-04-24 05:52 | 14.47275 | 99.45730 | 27647 ft | 511 kts | 117° |
| 2026-04-24 05:52 | 14.45622 | 99.49012 | 26956 ft | 506 kts | 117° |
| 2026-04-24 05:53 | 14.44350 | 99.52319 | 26293 ft | 502 kts | 105° |
| 2026-04-24 05:53 | 14.43749 | 99.55849 | 25619 ft | 498 kts | 95° |
| 2026-04-24 05:53 | 14.43459 | 99.59397 | 24954 ft | 494 kts | 94° |
| 2026-04-24 05:53 | 14.43225 | 99.62926 | 24289 ft | 491 kts | 93° |
| 2026-04-24 05:54 | 14.43002 | 99.66422 | 23645 ft | 487 kts | 93° |
| 2026-04-24 05:54 | 14.42781 | 99.69895 | 22912 ft | 484 kts | 93° |
| 2026-04-24 05:54 | 14.42562 | 99.73350 | 22223 ft | 478 kts | 93° |
| 2026-04-24 05:54 | 14.42346 | 99.76751 | 21579 ft | 472 kts | 93° |
| 2026-04-24 05:55 | 14.42132 | 99.80114 | 20927 ft | 467 kts | 93° |
| 2026-04-24 05:55 | 14.41921 | 99.83434 | 20287 ft | 462 kts | 93° |
| 2026-04-24 05:55 | 14.41711 | 99.86727 | 19635 ft | 457 kts | 93° |
| 2026-04-24 05:55 | 14.41503 | 99.89974 | 19376 ft | 444 kts | 93° |
| 2026-04-24 05:56 | 14.41303 | 99.93080 | 19277 ft | 426 kts | 93° |
| 2026-04-24 05:56 | 14.41109 | 99.96084 | 19117 ft | 412 kts | 93° |
| 2026-04-24 05:56 | 14.40922 | 99.98988 | 18947 ft | 399 kts | 93° |
| 2026-04-24 05:56 | 14.40743 | 100.01776 | 18646 ft | 390 kts | 93° |
| 2026-04-24 05:57 | 14.40561 | 100.04564 | 18167 ft | 389 kts | 94° |
| 2026-04-24 05:57 | 14.40142 | 100.07294 | 17858 ft | 381 kts | 103° |
| 2026-04-24 05:57 | 14.39506 | 100.09931 | 17523 ft | 377 kts | 104° |
| 2026-04-24 05:57 | 14.38850 | 100.12534 | 17119 ft | 375 kts | 104° |
| 2026-04-24 05:58 | 14.38192 | 100.15144 | 16806 ft | 375 kts | 104° |
| 2026-04-24 05:58 | 14.37539 | 100.17742 | 16537 ft | 373 kts | 104° |
| 2026-04-24 05:58 | 14.36892 | 100.20330 | 16264 ft | 371 kts | 104° |
| 2026-04-24 05:58 | 14.36248 | 100.22904 | 15990 ft | 369 kts | 104° |
| 2026-04-24 05:59 | 14.35613 | 100.25430 | 15718 ft | 367 kts | 104° |
| 2026-04-24 05:59 | 14.34977 | 100.27968 | 15442 ft | 366 kts | 104° |
| 2026-04-24 05:59 | 14.34341 | 100.30505 | 15171 ft | 363 kts | 104° |
| 2026-04-24 05:59 | 14.33713 | 100.33009 | 14906 ft | 361 kts | 104° |
| 2026-04-24 06:00 | 14.33085 | 100.35519 | 14647 ft | 359 kts | 104° |
| 2026-04-24 06:00 | 14.32461 | 100.38010 | 14392 ft | 358 kts | 105° |
| 2026-04-24 06:00 | 14.31844 | 100.40465 | 14228 ft | 347 kts | 105° |
| 2026-04-24 06:00 | 14.31250 | 100.42833 | 14058 ft | 335 kts | 105° |
| 2026-04-24 06:01 | 14.30675 | 100.45122 | 13852 ft | 325 kts | 105° |
| 2026-04-24 06:01 | 14.30115 | 100.47351 | 13650 ft | 316 kts | 105° |
| 2026-04-24 06:01 | 14.29568 | 100.49540 | 13234 ft | 314 kts | 105° |
| 2026-04-24 06:01 | 14.29021 | 100.51709 | 12956 ft | 311 kts | 105° |
| 2026-04-24 06:02 | 14.28476 | 100.53870 | 12718 ft | 310 kts | 105° |
| 2026-04-24 06:02 | 14.27933 | 100.56021 | 12607 ft | 310 kts | 105° |
| 2026-04-24 06:02 | 14.27393 | 100.58165 | 12396 ft | 309 kts | 105° |
| 2026-04-24 06:02 | 14.26859 | 100.60283 | 12184 ft | 308 kts | 105° |
| 2026-04-24 06:03 | 14.26314 | 100.62412 | 11968 ft | 307 kts | 106° |
| 2026-04-24 06:03 | 14.25445 | 100.64405 | 11745 ft | 305 kts | 126° |
| 2026-04-24 06:03 | 14.23907 | 100.65868 | 11526 ft | 302 kts | 150° |
| 2026-04-24 06:03 | 14.21920 | 100.66521 | 11307 ft | 301 kts | 175° |
| 2026-04-24 06:04 | 14.19859 | 100.66263 | 11093 ft | 301 kts | 199° |
| 2026-04-24 06:04 | 14.17951 | 100.65396 | 10880 ft | 300 kts | 201° |
| 2026-04-24 06:04 | 14.15965 | 100.64729 | 10640 ft | 299 kts | 195° |
| 2026-04-24 06:04 | 14.13963 | 100.64178 | 10249 ft | 297 kts | 194° |
| 2026-04-24 06:05 | 14.11968 | 100.63648 | 9872 ft | 295 kts | 193° |
| 2026-04-24 06:05 | 14.10666 | 100.63306 | 9597 ft | 294 kts | 194° |
| 2026-04-24 06:05 | 14.08009 | 100.62606 | 9025 ft | 291 kts | 193° |
| 2026-04-24 06:05 | 14.06072 | 100.62097 | 8871 ft | 281 kts | 194° |
| 2026-04-24 06:06 | 14.04235 | 100.61613 | 8727 ft | 270 kts | 194° |
| 2026-04-24 06:06 | 14.02441 | 100.61184 | 8562 ft | 260 kts | 188° |
| 2026-04-24 06:06 | 14.00663 | 100.61302 | 8226 ft | 256 kts | 160° |
| 2026-04-24 06:06 | 13.99210 | 100.62298 | 7909 ft | 252 kts | 130° |
| 2026-04-24 06:07 | 13.98398 | 100.63870 | 7575 ft | 250 kts | 108° |
| 2026-04-24 06:07 | 13.97931 | 100.65594 | 7255 ft | 248 kts | 104° |
| 2026-04-24 06:07 | 13.97506 | 100.67317 | 6932 ft | 247 kts | 104° |
| 2026-04-24 06:07 | 13.97161 | 100.69051 | 6570 ft | 248 kts | 95° |
| 2026-04-24 06:08 | 13.97406 | 100.70786 | 6217 ft | 247 kts | 67° |
| 2026-04-24 06:08 | 13.98429 | 100.72188 | 5848 ft | 247 kts | 39° |
| 2026-04-24 06:08 | 13.99958 | 100.72948 | 5474 ft | 249 kts | 16° |
| 2026-04-24 06:08 | 14.01635 | 100.73396 | 5136 ft | 249 kts | 14° |
| 2026-04-24 06:09 | 14.03326 | 100.73824 | 4777 ft | 250 kts | 14° |
| 2026-04-24 06:09 | 14.05018 | 100.74251 | 4391 ft | 252 kts | 14° |
| 2026-04-24 06:09 | 14.06718 | 100.74681 | 4047 ft | 249 kts | 14° |
| 2026-04-24 06:09 | 14.08393 | 100.75110 | 3964 ft | 248 kts | 14° |
| 2026-04-24 06:10 | 14.10012 | 100.75819 | 3941 ft | 265 kts | 38° |
| 2026-04-24 06:10 | 14.11116 | 100.77347 | 3946 ft | 271 kts | 72° |
| 2026-04-24 06:10 | 14.11373 | 100.79192 | 3947 ft | 250 kts | 98° |
| 2026-04-24 06:11 | 14.09371 | 100.81571 | 3965 ft | 229 kts | 160° |
| 2026-04-24 06:11 | 14.07869 | 100.82126 | 3955 ft | 231 kts | 161° |
| 2026-04-24 06:11 | 14.06350 | 100.82695 | 3954 ft | 231 kts | 160° |
| 2026-04-24 06:11 | 14.04850 | 100.83296 | 3958 ft | 231 kts | 159° |
| 2026-04-24 06:12 | 14.03356 | 100.83916 | 3957 ft | 233 kts | 158° |
| 2026-04-24 06:12 | 14.01792 | 100.84319 | 3962 ft | 232 kts | 178° |
| 2026-04-24 06:12 | 14.00189 | 100.84221 | 3964 ft | 231 kts | 188° |
| 2026-04-24 06:12 | 13.98649 | 100.83896 | 3991 ft | 226 kts | 193° |
| 2026-04-24 06:13 | 13.97142 | 100.83499 | 4044 ft | 223 kts | 195° |
| 2026-04-24 06:13 | 13.95633 | 100.83093 | 4060 ft | 225 kts | 194° |
| 2026-04-24 06:13 | 13.94114 | 100.82693 | 4055 ft | 224 kts | 194° |
| 2026-04-24 06:13 | 13.92603 | 100.82296 | 4047 ft | 224 kts | 194° |
| 2026-04-24 06:14 | 13.91111 | 100.81901 | 4046 ft | 212 kts | 194° |
| 2026-04-24 06:14 | 13.89743 | 100.81539 | 3995 ft | 196 kts | 194° |
| 2026-04-24 06:14 | 13.88449 | 100.81198 | 3786 ft | 189 kts | 194° |
| 2026-04-24 06:14 | 13.87186 | 100.80864 | 3519 ft | 186 kts | 194° |
| 2026-04-24 06:15 | 13.85939 | 100.80535 | 3252 ft | 183 kts | 194° |
| 2026-04-24 06:15 | 13.84733 | 100.80216 | 3003 ft | 178 kts | 194° |
| 2026-04-24 06:15 | 13.83551 | 100.79904 | 2782 ft | 173 kts | 193° |
| 2026-04-24 06:15 | 13.82396 | 100.79599 | 2559 ft | 168 kts | 194° |
| 2026-04-24 06:16 | 13.81290 | 100.79307 | 2356 ft | 160 kts | 194° |
| 2026-04-24 06:16 | 13.80238 | 100.79028 | 2146 ft | 150 kts | 193° |
| 2026-04-24 06:16 | 13.79251 | 100.78768 | 1959 ft | 142 kts | 194° |
| 2026-04-24 06:16 | 13.78321 | 100.78522 | 1783 ft | 134 kts | 194° |
| 2026-04-24 06:17 | 13.77412 | 100.78282 | 1627 ft | 136 kts | 194° |
| 2026-04-24 06:17 | 13.76493 | 100.78050 | 1437 ft | 140 kts | 191° |
| 2026-04-24 06:17 | 13.75518 | 100.77876 | 1164 ft | 143 kts | 188° |
| 2026-04-24 06:17 | 13.74558 | 100.77685 | 903 ft | 137 kts | 191° |
| 2026-04-24 06:18 | 13.73657 | 100.77463 | 724 ft | 131 kts | 198° |
| 2026-04-24 06:18 | 13.72803 | 100.77153 | 640 ft | 131 kts | 198° |
| 2026-04-24 06:18 | 13.71922 | 100.76846 | 529 ft | 136 kts | 197° |
| 2026-04-24 06:18 | 13.71323 | 100.76671 | 397 ft | 131 kts | 194° |
| 2026-04-24 06:19 | 13.70448 | 100.76443 | 243 ft | 130 kts | 195° |
| 2026-04-24 06:19 | 13.69578 | 100.76209 | 127 ft | 129 kts | 194° |
| 2026-04-24 06:19 | 13.68706 | 100.75983 | 40 ft | 129 kts | 194° |
| 2026-04-24 06:19 | 13.67867 | 100.75766 | 16 ft | 117 kts | 194° |
| 2026-04-24 06:20 | 13.67199 | 100.75583 | 15 ft | 72 kts | 193° |
| 2026-04-24 06:20 | 13.66989 | 100.75533 | 16 ft | 17 kts | 194° |
| 2026-04-24 06:20 | 13.66834 | 100.75481 | 15 ft | 31 kts | 207° |
| 2026-04-24 06:20 | 13.66705 | 100.75390 | 15 ft | 5 kts | 225° |
| 2026-04-24 06:21 | 13.66674 | 100.75357 | 15 ft | 8 kts | 229° |
| 2026-04-24 06:21 | 13.66648 | 100.75299 | 15 ft | 10 kts | 274° |
| 2026-04-24 06:21 | 13.66703 | 100.75268 | 15 ft | 11 kts | 11° |
| 2026-04-24 06:21 | 13.66796 | 100.75288 | 15 ft | 16 kts | 13° |
| 2026-04-24 06:22 | 13.66919 | 100.75318 | 14 ft | 20 kts | 15° |
| 2026-04-24 06:22 | 13.67065 | 100.75357 | 15 ft | 23 kts | 14° |
| 2026-04-24 06:22 | 13.67220 | 100.75399 | 15 ft | 24 kts | 14° |
| 2026-04-24 06:22 | 13.67392 | 100.75445 | 15 ft | 27 kts | 14° |
| 2026-04-24 06:23 | 13.67579 | 100.75495 | 15 ft | 29 kts | 14° |
| 2026-04-24 06:23 | 13.67775 | 100.75547 | 15 ft | 28 kts | 14° |
| 2026-04-24 06:23 | 13.67968 | 100.75597 | 14 ft | 30 kts | 14° |
| 2026-04-24 06:23 | 13.68152 | 100.75645 | 14 ft | 18 kts | 14° |
| 2026-04-24 06:24 | 13.68277 | 100.75678 | 15 ft | 20 kts | 14° |
| 2026-04-24 06:24 | 13.68420 | 100.75704 | 15 ft | 21 kts | 345° |
| 2026-04-24 06:24 | 13.68472 | 100.75581 | 14 ft | 20 kts | 285° |
| 2026-04-24 06:24 | 13.68509 | 100.75432 | 14 ft | 22 kts | 284° |
| 2026-04-24 06:25 | 13.68550 | 100.75270 | 14 ft | 24 kts | 284° |
| 2026-04-24 06:25 | 13.68594 | 100.75095 | 14 ft | 26 kts | 286° |
| 2026-04-24 06:25 | 13.68636 | 100.74938 | 14 ft | 22 kts | 284° |
| 2026-04-24 06:25 | 13.68676 | 100.74777 | 16 ft | 24 kts | 283° |
| 2026-04-24 06:26 | 13.68712 | 100.74625 | 15 ft | 15 kts | 284° |
| 2026-04-24 06:26 | 13.68739 | 100.74515 | 15 ft | 17 kts | 284° |
| 2026-04-24 06:26 | 13.68794 | 100.74411 | 15 ft | 17 kts | 341° |
| 2026-04-24 06:26 | 13.68883 | 100.74443 | 15 ft | 9 kts | 79° |
| 2026-04-24 06:27 | 13.68869 | 100.74474 | 15 ft | 4 kts | 110° |
| 2026-04-24 06:27 | 13.68858 | 100.74514 | 15 ft | 0 kts | 105° |